Wetterdaten: Sonntag, 26.10.2014
Datum Zeit Temp. Aussen +5cm Feuchte Auss Luftdruck Regen Sonnenschein Regendauer Solar Windben
26.10.2014 00:00 8,9 C 7,2 C 95 % 1022,7 hPa 0,0 l/m 0 min 2 min 0 W/m 4,2 km/h (1 Bft)
26.10.2014 00:02 8,9 C 7,2 C 95 % 1022,8 hPa 0,0 l/m 0 min 2 min 0 W/m 6,3 km/h (2 Bft)
26.10.2014 00:05 8,9 C 7,2 C 95 % 1022,8 hPa 0,0 l/m 0 min 2 min 0 W/m 6,3 km/h (2 Bft)
26.10.2014 00:08 8,8 C 7,2 C 95 % 1022,9 hPa 0,0 l/m 0 min 2 min 0 W/m 8,4 km/h (2 Bft)
26.10.2014 00:10 8,8 C 7,8 C 95 % 1022,9 hPa 0,0 l/m 0 min 2 min 0 W/m 6,3 km/h (2 Bft)
26.10.2014 00:12 8,8 C 7,8 C 95 % 1022,9 hPa 0,0 l/m 0 min 2 min 0 W/m 6,3 km/h (2 Bft)
26.10.2014 00:14 8,8 C 7,8 C 95 % 1023,0 hPa 0,0 l/m 0 min 2 min 0 W/m 6,3 km/h (2 Bft)
26.10.2014 00:16 8,8 C 7,8 C 95 % 1022,9 hPa 0,0 l/m 0 min 2 min 0 W/m 4,2 km/h (1 Bft)
26.10.2014 00:18 8,8 C 7,8 C 95 % 1023,0 hPa 0,0 l/m 0 min 2 min 0 W/m 4,2 km/h (1 Bft)
26.10.2014 00:20 8,8 C 7,2 C 95 % 1022,9 hPa 0,0 l/m 0 min 2 min 0 W/m 6,3 km/h (2 Bft)
26.10.2014 00:22 8,8 C 7,2 C 95 % 1023,0 hPa 0,0 l/m 0 min 2 min 0 W/m 6,3 km/h (2 Bft)
26.10.2014 00:24 8,8 C 7,2 C 95 % 1023,0 hPa 0,0 l/m 0 min 2 min 0 W/m 8,4 km/h (2 Bft)
26.10.2014 00:26 8,8 C 7,8 C 95 % 1023,0 hPa 0,0 l/m 0 min 2 min 0 W/m 12,6 km/h (3 Bft)
26.10.2014 00:28 8,8 C 7,2 C 95 % 1022,9 hPa 0,0 l/m 0 min 2 min 0 W/m 4,2 km/h (1 Bft)
26.10.2014 00:30 8,8 C 7,2 C 95 % 1023,0 hPa 0,0 l/m 0 min 2 min 0 W/m 4,2 km/h (1 Bft)
26.10.2014 00:32 8,8 C 7,2 C 95 % 1023,0 hPa 0,0 l/m 0 min 2 min 0 W/m 4,2 km/h (1 Bft)
26.10.2014 00:34 8,8 C 7,2 C 95 % 1023,0 hPa 0,0 l/m 0 min 2 min 0 W/m 4,2 km/h (1 Bft)
26.10.2014 00:36 8,8 C 7,2 C 95 % 1023,0 hPa 0,0 l/m 0 min 2 min 0 W/m 4,2 km/h (1 Bft)
26.10.2014 00:38 8,8 C 7,2 C 95 % 1023,0 hPa 0,0 l/m 0 min 2 min 0 W/m 4,2 km/h (1 Bft)
26.10.2014 00:40 8,8 C 7,2 C 96 % 1023,0 hPa 0,0 l/m 0 min 2 min 0 W/m 4,2 km/h (1 Bft)
26.10.2014 00:42 8,8 C 7,2 C 96 % 1023,0 hPa 0,0 l/m 0 min 2 min 0 W/m 4,2 km/h (1 Bft)
26.10.2014 00:44 8,8 C 7,2 C 96 % 1023,1 hPa 0,0 l/m 0 min 2 min 0 W/m 8,4 km/h (2 Bft)
26.10.2014 00:46 8,8 C 7,2 C 96 % 1023,1 hPa 0,0 l/m 0 min 2 min 0 W/m 6,3 km/h (2 Bft)
26.10.2014 00:48 8,8 C 7,2 C 96 % 1023,1 hPa 0,0 l/m 0 min 2 min 0 W/m 6,3 km/h (2 Bft)
26.10.2014 00:50 8,8 C 7,2 C 96 % 1023,1 hPa 0,0 l/m 0 min 2 min 0 W/m 6,3 km/h (2 Bft)
26.10.2014 00:52 8,8 C 7,2 C 96 % 1023,1 hPa 0,0 l/m 0 min 2 min 0 W/m 4,2 km/h (1 Bft)
26.10.2014 00:54 8,8 C 7,2 C 96 % 1023,1 hPa 0,0 l/m 0 min 2 min 0 W/m 4,2 km/h (1 Bft)
26.10.2014 00:56 8,8 C 6,7 C 96 % 1023,1 hPa 0,0 l/m 0 min 2 min 0 W/m 4,2 km/h (1 Bft)
26.10.2014 00:58 8,7 C 7,2 C 96 % 1023,1 hPa 0,0 l/m 0 min 2 min 0 W/m 4,2 km/h (1 Bft)
26.10.2014 01:00 8,7 C 7,2 C 96 % 1023,2 hPa 0,0 l/m 0 min 2 min 0 W/m 4,2 km/h (1 Bft)
26.10.2014 01:02 8,7 C 7,2 C 96 % 1023,2 hPa 0,0 l/m 0 min 2 min 0 W/m 4,2 km/h (1 Bft)
26.10.2014 01:04 8,7 C 7,2 C 96 % 1023,2 hPa 0,0 l/m 0 min 2 min 0 W/m 6,3 km/h (2 Bft)
26.10.2014 01:06 8,7 C 7,2 C 96 % 1023,2 hPa 0,0 l/m 0 min 2 min 0 W/m 6,3 km/h (2 Bft)
26.10.2014 01:08 8,7 C 7,2 C 96 % 1023,1 hPa 0,0 l/m 0 min 2 min 0 W/m 6,3 km/h (2 Bft)
26.10.2014 01:10 8,7 C 7,2 C 96 % 1023,2 hPa 0,0 l/m 0 min 2 min 0 W/m 4,2 km/h (1 Bft)
26.10.2014 01:12 8,7 C 7,2 C 96 % 1023,2 hPa 0,0 l/m 0 min 2 min 0 W/m 4,2 km/h (1 Bft)
26.10.2014 01:14 8,7 C 7,2 C 96 % 1023,2 hPa 0,0 l/m 0 min 2 min 0 W/m 4,2 km/h (1 Bft)
26.10.2014 01:16 8,7 C 7,2 C 96 % 1023,2 hPa 0,0 l/m 0 min 2 min 0 W/m 6,3 km/h (2 Bft)
26.10.2014 01:18 8,7 C 7,2 C 96 % 1023,2 hPa 0,0 l/m 0 min 2 min 0 W/m 6,3 km/h (2 Bft)
26.10.2014 01:20 8,7 C 7,2 C 96 % 1023,2 hPa 0,0 l/m 0 min 2 min 0 W/m 4,2 km/h (1 Bft)
26.10.2014 01:22 8,7 C 7,2 C 96 % 1023,1 hPa 0,0 l/m 0 min 2 min 0 W/m 4,2 km/h (1 Bft)
26.10.2014 01:24 8,7 C 7,2 C 96 % 1023,1 hPa 0,0 l/m 0 min 2 min 0 W/m 4,2 km/h (1 Bft)
26.10.2014 01:26 8,7 C 7,2 C 96 % 1023,1 hPa 0,0 l/m 0 min 2 min 0 W/m 6,3 km/h (2 Bft)
26.10.2014 01:28 8,7 C 7,2 C 96 % 1023,1 hPa 0,0 l/m 0 min 2 min 0 W/m 4,2 km/h (1 Bft)
26.10.2014 01:30 8,7 C 7,2 C 96 % 1023,1 hPa 0,0 l/m 0 min 2 min 0 W/m 4,2 km/h (1 Bft)
26.10.2014 01:32 8,7 C 7,2 C 96 % 1023,1 hPa 0,0 l/m 0 min 2 min 0 W/m 4,2 km/h (1 Bft)
26.10.2014 01:34 8,7 C 7,2 C 96 % 1023,1 hPa 0,0 l/m 0 min 2 min 0 W/m 4,2 km/h (1 Bft)
26.10.2014 01:36 8,7 C 7,8 C 96 % 1023,2 hPa 0,0 l/m 0 min 2 min 0 W/m 4,2 km/h (1 Bft)
26.10.2014 01:38 8,7 C 7,8 C 96 % 1023,1 hPa 0,0 l/m 0 min 2 min 0 W/m 4,2 km/h (1 Bft)
26.10.2014 01:40 8,7 C 7,8 C 96 % 1023,1 hPa 0,0 l/m 0 min 2 min 0 W/m 4,2 km/h (1 Bft)
26.10.2014 01:42 8,7 C 7,8 C 96 % 1023,1 hPa 0,0 l/m 0 min 2 min 0 W/m 4,2 km/h (1 Bft)
26.10.2014 01:44 8,7 C 7,8 C 96 % 1023,1 hPa 0,0 l/m 0 min 2 min 0 W/m 4,2 km/h (1 Bft)
26.10.2014 01:46 8,7 C 7,8 C 96 % 1023,2 hPa 0,0 l/m 0 min 2 min 0 W/m 6,3 km/h (2 Bft)
26.10.2014 01:48 8,7 C 7,8 C 96 % 1023,2 hPa 0,0 l/m 0 min 2 min 0 W/m 6,3 km/h (2 Bft)
26.10.2014 01:50 8,7 C 7,8 C 96 % 1023,2 hPa 0,0 l/m 0 min 2 min 0 W/m 6,3 km/h (2 Bft)
26.10.2014 01:52 8,7 C 7,8 C 96 % 1023,2 hPa 0,0 l/m 0 min 2 min 0 W/m 4,2 km/h (1 Bft)
26.10.2014 01:54 8,7 C 7,8 C 96 % 1023,2 hPa 0,0 l/m 0 min 2 min 0 W/m 6,3 km/h (2 Bft)
26.10.2014 01:56 8,7 C 7,8 C 96 % 1023,2 hPa 0,0 l/m 0 min 2 min 0 W/m 4,2 km/h (1 Bft)
26.10.2014 01:58 8,7 C 7,8 C 96 % 1023,2 hPa 0,0 l/m 0 min 2 min 0 W/m 4,2 km/h (1 Bft)
26.10.2014 02:00 8,7 C 7,8 C 96 % 1023,2 hPa 0,0 l/m 0 min 2 min 0 W/m 6,3 km/h (2 Bft)
26.10.2014 02:02 8,7 C 7,8 C 96 % 1023,2 hPa 0,0 l/m 0 min 2 min 0 W/m 4,2 km/h (1 Bft)
26.10.2014 02:04 8,7 C 7,8 C 96 % 1023,2 hPa 0,0 l/m 0 min 2 min 0 W/m 6,3 km/h (2 Bft)
26.10.2014 02:06 8,7 C 7,8 C 96 % 1023,2 hPa 0,0 l/m 0 min 2 min 0 W/m 4,2 km/h (1 Bft)
26.10.2014 02:08 8,7 C 7,8 C 96 % 1023,2 hPa 0,0 l/m 0 min 2 min 0 W/m 6,3 km/h (2 Bft)
26.10.2014 02:10 8,7 C 7,8 C 96 % 1023,2 hPa 0,0 l/m 0 min 2 min 0 W/m 8,4 km/h (2 Bft)
26.10.2014 02:12 8,8 C 7,8 C 96 % 1023,2 hPa 0,0 l/m 0 min 2 min 0 W/m 8,4 km/h (2 Bft)
26.10.2014 02:14 8,8 C 7,8 C 96 % 1023,2 hPa 0,0 l/m 0 min 2 min 0 W/m 4,2 km/h (1 Bft)
26.10.2014 02:16 8,8 C 7,8 C 96 % 1023,2 hPa 0,0 l/m 0 min 2 min 0 W/m 6,3 km/h (2 Bft)
26.10.2014 02:18 8,8 C 7,8 C 96 % 1023,2 hPa 0,0 l/m 0 min 2 min 0 W/m 6,3 km/h (2 Bft)
26.10.2014 02:20 8,8 C 7,8 C 96 % 1023,3 hPa 0,0 l/m 0 min 2 min 0 W/m 6,3 km/h (2 Bft)
26.10.2014 02:22 8,8 C 7,8 C 97 % 1023,3 hPa 0,0 l/m 0 min 2 min 0 W/m 10,5 km/h (2 Bft)
26.10.2014 02:24 8,8 C 7,8 C 97 % 1023,3 hPa 0,0 l/m 0 min 2 min 0 W/m 6,3 km/h (2 Bft)
26.10.2014 02:26 8,9 C 7,8 C 97 % 1023,3 hPa 0,0 l/m 0 min 2 min 0 W/m 4,2 km/h (1 Bft)
26.10.2014 02:28 8,9 C 7,8 C 97 % 1023,3 hPa 0,0 l/m 0 min 2 min 0 W/m 6,3 km/h (2 Bft)
26.10.2014 02:30 8,9 C 8,3 C 97 % 1023,4 hPa 0,0 l/m 0 min 2 min 0 W/m 4,2 km/h (1 Bft)
26.10.2014 02:32 8,9 C 8,3 C 97 % 1023,4 hPa 0,0 l/m 0 min 2 min 0 W/m 6,3 km/h (2 Bft)
26.10.2014 02:34 8,9 C 8,3 C 97 % 1023,4 hPa 0,0 l/m 0 min 2 min 0 W/m 6,3 km/h (2 Bft)
26.10.2014 02:36 9,0 C 8,3 C 97 % 1023,4 hPa 0,0 l/m 0 min 2 min 0 W/m 6,3 km/h (2 Bft)
26.10.2014 02:38 9,0 C 8,3 C 97 % 1023,4 hPa 0,0 l/m 0 min 2 min 0 W/m 6,3 km/h (2 Bft)
26.10.2014 02:40 9,0 C 8,3 C 97 % 1023,3 hPa 0,0 l/m 0 min 2 min 0 W/m 6,3 km/h (2 Bft)
26.10.2014 02:42 9,1 C 8,3 C 97 % 1023,3 hPa 0,0 l/m 0 min 2 min 0 W/m 8,4 km/h (2 Bft)
26.10.2014 02:44 9,1 C 8,3 C 97 % 1023,3 hPa 0,0 l/m 0 min 2 min 0 W/m 8,4 km/h (2 Bft)
26.10.2014 02:46 9,2 C 8,3 C 97 % 1023,3 hPa 0,0 l/m 0 min 2 min 0 W/m 8,4 km/h (2 Bft)
26.10.2014 02:48 9,2 C 8,9 C 97 % 1023,3 hPa 0,0 l/m 0 min 2 min 0 W/m 8,4 km/h (2 Bft)
26.10.2014 02:50 9,2 C 8,9 C 97 % 1023,3 hPa 0,0 l/m 0 min 2 min 0 W/m 10,5 km/h (2 Bft)
26.10.2014 02:52 9,2 C 8,9 C 97 % 1023,3 hPa 0,0 l/m 0 min 2 min 0 W/m 8,4 km/h (2 Bft)
26.10.2014 02:54 9,3 C 8,9 C 97 % 1023,4 hPa 0,0 l/m 0 min 2 min 0 W/m 6,3 km/h (2 Bft)
26.10.2014 02:56 9,3 C 8,9 C 97 % 1023,4 hPa 0,0 l/m 0 min 2 min 0 W/m 6,3 km/h (2 Bft)
26.10.2014 02:58 9,3 C 8,9 C 97 % 1023,4 hPa 0,0 l/m 0 min 2 min 0 W/m 8,4 km/h (2 Bft)
26.10.2014 02:00 9,4 C 8,9 C 97 % 1023,4 hPa 0,0 l/m 0 min -58 min 0 W/m 6,3 km/h (2 Bft)
26.10.2014 02:02 9,4 C 8,9 C 97 % 1023,4 hPa 0,0 l/m 0 min 2 min 0 W/m 6,3 km/h (2 Bft)
26.10.2014 02:04 9,4 C 8,9 C 97 % 1023,4 hPa 0,0 l/m 0 min 2 min 0 W/m 6,3 km/h (2 Bft)
26.10.2014 02:06 9,4 C 8,9 C 97 % 1023,4 hPa 0,0 l/m 0 min 2 min 0 W/m 6,3 km/h (2 Bft)
26.10.2014 02:08 9,5 C 8,9 C 97 % 1023,4 hPa 0,0 l/m 0 min 2 min 0 W/m 8,4 km/h (2 Bft)
26.10.2014 02:10 9,5 C 8,9 C 97 % 1023,4 hPa 0,0 l/m 0 min 2 min 0 W/m 6,3 km/h (2 Bft)
26.10.2014 02:12 9,6 C 8,9 C 97 % 1023,5 hPa 0,0 l/m 0 min 2 min 0 W/m 4,2 km/h (1 Bft)
26.10.2014 02:14 9,6 C 8,9 C 97 % 1023,4 hPa 0,0 l/m 0 min 2 min 0 W/m 8,4 km/h (2 Bft)
26.10.2014 02:16 9,6 C 8,9 C 97 % 1023,4 hPa 0,0 l/m 0 min 2 min 0 W/m 6,3 km/h (2 Bft)
26.10.2014 02:18 9,7 C 9,4 C 97 % 1023,4 hPa 0,0 l/m 0 min 2 min 0 W/m 8,4 km/h (2 Bft)
26.10.2014 02:20 9,7 C 9,4 C 97 % 1023,5 hPa 0,0 l/m 0 min 2 min 0 W/m 6,3 km/h (2 Bft)
26.10.2014 02:22 9,7 C 9,4 C 97 % 1023,4 hPa 0,0 l/m 0 min 2 min 0 W/m 6,3 km/h (2 Bft)
26.10.2014 02:24 9,8 C 9,4 C 97 % 1023,5 hPa 0,0 l/m 0 min 2 min 0 W/m 4,2 km/h (1 Bft)
26.10.2014 02:26 9,8 C 9,4 C 98 % 1023,4 hPa 0,0 l/m 0 min 2 min 0 W/m 8,4 km/h (2 Bft)
26.10.2014 02:28 9,9 C 9,4 C 98 % 1023,4 hPa 0,0 l/m 0 min 2 min 0 W/m 10,5 km/h (2 Bft)
26.10.2014 02:30 9,9 C 9,4 C 98 % 1023,4 hPa 0,0 l/m 0 min 2 min 0 W/m 8,4 km/h (2 Bft)
26.10.2014 02:32 10,0 C 9,4 C 98 % 1023,3 hPa 0,0 l/m 0 min 2 min 0 W/m 8,4 km/h (2 Bft)
26.10.2014 02:34 10,0 C 9,4 C 98 % 1023,3 hPa 0,0 l/m 0 min 2 min 0 W/m 6,3 km/h (2 Bft)
26.10.2014 02:36 10,1 C 9,4 C 98 % 1023,3 hPa 0,0 l/m 0 min 2 min 0 W/m 10,5 km/h (2 Bft)
26.10.2014 02:38 10,1 C 9,4 C 98 % 1023,3 hPa 0,0 l/m 0 min 2 min 0 W/m 10,5 km/h (2 Bft)
26.10.2014 02:40 10,1 C 9,4 C 98 % 1023,3 hPa 0,0 l/m 0 min 2 min 0 W/m 8,4 km/h (2 Bft)
26.10.2014 02:42 10,2 C 9,4 C 98 % 1023,2 hPa 0,0 l/m 0 min 2 min 0 W/m 8,4 km/h (2 Bft)
26.10.2014 02:44 10,2 C 9,4 C 98 % 1023,2 hPa 0,0 l/m 0 min 2 min 0 W/m 10,5 km/h (2 Bft)
26.10.2014 02:46 10,2 C 9,4 C 98 % 1023,2 hPa 0,0 l/m 0 min 2 min 0 W/m 8,4 km/h (2 Bft)
26.10.2014 02:48 10,2 C 9,4 C 98 % 1023,2 hPa 0,0 l/m 0 min 2 min 0 W/m 8,4 km/h (2 Bft)
26.10.2014 02:50 10,3 C 9,4 C 98 % 1023,2 hPa 0,0 l/m 0 min 2 min 0 W/m 12,6 km/h (3 Bft)
26.10.2014 02:52 10,3 C 9,4 C 98 % 1023,2 hPa 0,0 l/m 0 min 2 min 0 W/m 8,4 km/h (2 Bft)
26.10.2014 02:54 10,3 C 9,4 C 98 % 1023,2 hPa 0,0 l/m 0 min 2 min 0 W/m 6,3 km/h (2 Bft)
26.10.2014 02:56 10,3 C 9,4 C 98 % 1023,3 hPa 0,0 l/m 0 min 2 min 0 W/m 6,3 km/h (2 Bft)
26.10.2014 02:58 10,3 C 9,4 C 98 % 1023,3 hPa 0,0 l/m 0 min 0 min 0 W/m 8,4 km/h (2 Bft)
26.10.2014 03:00 10,4 C 9,4 C 98 % 1023,3 hPa 0,0 l/m 0 min 0 min 0 W/m 8,4 km/h (2 Bft)
26.10.2014 03:02 10,4 C 9,4 C 98 % 1023,3 hPa 0,0 l/m 0 min 0 min 0 W/m 6,3 km/h (2 Bft)
26.10.2014 03:04 10,4 C 9,4 C 98 % 1023,3 hPa 0,0 l/m 0 min 0 min 0 W/m 8,4 km/h (2 Bft)
26.10.2014 03:06 10,4 C 9,4 C 98 % 1023,3 hPa 0,0 l/m 0 min 0 min 0 W/m 10,5 km/h (2 Bft)
26.10.2014 03:08 10,4 C 9,4 C 98 % 1023,3 hPa 0,0 l/m 0 min 0 min 0 W/m 10,5 km/h (2 Bft)
26.10.2014 03:10 10,4 C 9,4 C 98 % 1023,3 hPa 0,0 l/m 0 min 0 min 0 W/m 12,6 km/h (3 Bft)
26.10.2014 03:12 10,5 C 9,4 C 98 % 1023,3 hPa 0,0 l/m 0 min 0 min 0 W/m 10,5 km/h (2 Bft)
26.10.2014 03:14 10,5 C 9,4 C 98 % 1023,4 hPa 0,0 l/m 0 min 0 min 0 W/m 8,4 km/h (2 Bft)
26.10.2014 03:16 10,6 C 9,4 C 98 % 1023,4 hPa 0,0 l/m 0 min 0 min 0 W/m 14,6 km/h (3 Bft)
26.10.2014 03:18 10,6 C 9,4 C 98 % 1023,4 hPa 0,0 l/m 0 min 0 min 0 W/m 12,6 km/h (3 Bft)
26.10.2014 03:20 10,6 C 9,4 C 98 % 1023,4 hPa 0,0 l/m 0 min 0 min 0 W/m 8,4 km/h (2 Bft)
26.10.2014 03:22 10,6 C 9,4 C 98 % 1023,4 hPa 0,0 l/m 0 min 0 min 0 W/m 10,5 km/h (2 Bft)
26.10.2014 03:24 10,6 C 9,4 C 98 % 1023,4 hPa 0,0 l/m 0 min 0 min 0 W/m 8,4 km/h (2 Bft)
26.10.2014 03:26 10,6 C 9,4 C 98 % 1023,5 hPa 0,0 l/m 0 min 0 min 0 W/m 10,5 km/h (2 Bft)
26.10.2014 03:28 10,7 C 9,4 C 98 % 1023,4 hPa 0,0 l/m 0 min 0 min 0 W/m 10,5 km/h (2 Bft)
26.10.2014 03:30 10,7 C 9,4 C 98 % 1023,5 hPa 0,0 l/m 0 min 0 min 0 W/m 12,6 km/h (3 Bft)
26.10.2014 03:32 10,7 C 9,4 C 98 % 1023,5 hPa 0,0 l/m 0 min 0 min 0 W/m 8,4 km/h (2 Bft)
26.10.2014 03:34 10,7 C 9,4 C 98 % 1023,5 hPa 0,0 l/m 0 min 0 min 0 W/m 10,5 km/h (2 Bft)
26.10.2014 03:36 10,7 C 9,4 C 98 % 1023,5 hPa 0,0 l/m 0 min 0 min 0 W/m 12,6 km/h (3 Bft)
26.10.2014 03:38 10,7 C 10,0 C 98 % 1023,5 hPa 0,0 l/m 0 min 0 min 0 W/m 16,7 km/h (3 Bft)
26.10.2014 03:40 10,7 C 9,4 C 98 % 1023,5 hPa 0,0 l/m 0 min 0 min 0 W/m 12,6 km/h (3 Bft)
26.10.2014 03:42 10,7 C 9,4 C 98 % 1023,5 hPa 0,0 l/m 0 min 0 min 0 W/m 10,5 km/h (2 Bft)
26.10.2014 03:44 10,7 C 9,4 C 98 % 1023,5 hPa 0,0 l/m 0 min 0 min 0 W/m 6,3 km/h (2 Bft)
26.10.2014 03:46 10,7 C 9,4 C 98 % 1023,6 hPa 0,0 l/m 0 min 0 min 0 W/m 8,4 km/h (2 Bft)
26.10.2014 03:48 10,7 C 9,4 C 98 % 1023,6 hPa 0,0 l/m 0 min 0 min 0 W/m 6,3 km/h (2 Bft)
26.10.2014 03:50 10,7 C 9,4 C 98 % 1023,6 hPa 0,0 l/m 0 min 0 min 0 W/m 10,5 km/h (2 Bft)
26.10.2014 03:52 10,7 C 9,4 C 98 % 1023,6 hPa 0,0 l/m 0 min 0 min 0 W/m 10,5 km/h (2 Bft)
26.10.2014 03:54 10,8 C 9,4 C 98 % 1023,6 hPa 0,0 l/m 0 min 0 min 0 W/m 12,6 km/h (3 Bft)
26.10.2014 03:56 10,8 C 9,4 C 98 % 1023,6 hPa 0,0 l/m 0 min 0 min 0 W/m 10,5 km/h (2 Bft)
26.10.2014 03:58 10,8 C 9,4 C 98 % 1023,6 hPa 0,0 l/m 0 min 0 min 0 W/m 8,4 km/h (2 Bft)
26.10.2014 04:00 10,8 C 9,4 C 98 % 1023,5 hPa 0,0 l/m 0 min 0 min 0 W/m 12,6 km/h (3 Bft)
26.10.2014 04:05 10,8 C 9,4 C 98 % 1023,6 hPa 0,0 l/m 0 min 0 min 0 W/m 12,6 km/h (3 Bft)
26.10.2014 04:06 10,8 C 9,4 C 98 % 1023,6 hPa 0,0 l/m 0 min 0 min 0 W/m 4,2 km/h (1 Bft)
26.10.2014 04:08 10,8 C 9,4 C 98 % 1023,6 hPa 0,0 l/m 0 min 0 min 0 W/m 10,5 km/h (2 Bft)
26.10.2014 04:10 10,8 C 10,0 C 98 % 1023,6 hPa 0,0 l/m 0 min 0 min 0 W/m 12,6 km/h (3 Bft)
26.10.2014 04:12 10,8 C 10,0 C 98 % 1023,5 hPa 0,0 l/m 0 min 0 min 0 W/m 12,6 km/h (3 Bft)
26.10.2014 04:14 10,8 C 10,0 C 98 % 1023,6 hPa 0,0 l/m 0 min 0 min 0 W/m 10,5 km/h (2 Bft)
26.10.2014 04:16 10,8 C 10,0 C 98 % 1023,6 hPa 0,0 l/m 0 min 0 min 0 W/m 14,6 km/h (3 Bft)
26.10.2014 04:18 10,8 C 10,0 C 98 % 1023,7 hPa 0,0 l/m 0 min 0 min 0 W/m 14,6 km/h (3 Bft)
26.10.2014 04:20 10,8 C 10,0 C 98 % 1023,7 hPa 0,0 l/m 0 min 0 min 0 W/m 14,6 km/h (3 Bft)
26.10.2014 04:22 10,8 C 10,0 C 98 % 1023,7 hPa 0,0 l/m 0 min 0 min 0 W/m 8,4 km/h (2 Bft)
26.10.2014 04:24 10,8 C 10,0 C 98 % 1023,6 hPa 0,0 l/m 0 min 0 min 0 W/m 12,6 km/h (3 Bft)
26.10.2014 04:26 10,8 C 10,0 C 98 % 1023,6 hPa 0,0 l/m 0 min 0 min 0 W/m 12,6 km/h (3 Bft)
26.10.2014 04:28 10,8 C 9,4 C 98 % 1023,7 hPa 0,0 l/m 0 min 0 min 0 W/m 8,4 km/h (2 Bft)
26.10.2014 04:30 10,8 C 9,4 C 98 % 1023,7 hPa 0,0 l/m 0 min 0 min 0 W/m 8,4 km/h (2 Bft)
26.10.2014 04:32 10,8 C 9,4 C 98 % 1023,7 hPa 0,0 l/m 0 min 0 min 0 W/m 10,5 km/h (2 Bft)
26.10.2014 04:34 10,8 C 9,4 C 98 % 1023,6 hPa 0,0 l/m 0 min 0 min 0 W/m 12,6 km/h (3 Bft)
26.10.2014 04:36 10,8 C 9,4 C 98 % 1023,7 hPa 0,0 l/m 0 min 0 min 0 W/m 10,5 km/h (2 Bft)
26.10.2014 04:38 10,8 C 9,4 C 98 % 1023,7 hPa 0,0 l/m 0 min 0 min 0 W/m 12,6 km/h (3 Bft)
26.10.2014 04:40 10,8 C 9,4 C 98 % 1023,7 hPa 0,0 l/m 0 min 0 min 0 W/m 8,4 km/h (2 Bft)
26.10.2014 04:42 10,8 C 9,4 C 98 % 1023,7 hPa 0,0 l/m 0 min 0 min 0 W/m 10,5 km/h (2 Bft)
26.10.2014 04:44 10,8 C 9,4 C 98 % 1023,7 hPa 0,0 l/m 0 min 0 min 0 W/m 10,5 km/h (2 Bft)
26.10.2014 04:46 10,8 C 9,4 C 98 % 1023,8 hPa 0,0 l/m 0 min 0 min 0 W/m 10,5 km/h (2 Bft)
26.10.2014 04:48 10,8 C 9,4 C 98 % 1023,8 hPa 0,0 l/m 0 min 0 min 0 W/m 8,4 km/h (2 Bft)
26.10.2014 04:50 10,7 C 9,4 C 98 % 1023,9 hPa 0,0 l/m 0 min 0 min 0 W/m 8,4 km/h (2 Bft)
26.10.2014 04:52 10,8 C 9,4 C 98 % 1024,0 hPa 0,0 l/m 0 min 0 min 0 W/m 12,6 km/h (3 Bft)
26.10.2014 04:54 10,7 C 9,4 C 98 % 1024,0 hPa 0,0 l/m 0 min 0 min 0 W/m 12,6 km/h (3 Bft)
26.10.2014 04:56 10,7 C 9,4 C 98 % 1023,9 hPa 0,0 l/m 0 min 0 min 0 W/m 8,4 km/h (2 Bft)
26.10.2014 04:58 10,7 C 9,4 C 98 % 1023,9 hPa 0,0 l/m 0 min 0 min 0 W/m 6,3 km/h (2 Bft)
26.10.2014 05:00 10,7 C 9,4 C 98 % 1023,8 hPa 0,0 l/m 0 min 0 min 0 W/m 6,3 km/h (2 Bft)
26.10.2014 05:02 10,7 C 9,4 C 98 % 1023,8 hPa 0,0 l/m 0 min 0 min 0 W/m 14,6 km/h (3 Bft)
26.10.2014 05:04 10,7 C 9,4 C 98 % 1023,7 hPa 0,0 l/m 0 min 0 min 0 W/m 10,5 km/h (2 Bft)
26.10.2014 05:06 10,7 C 9,4 C 98 % 1023,7 hPa 0,0 l/m 0 min 0 min 0 W/m 12,6 km/h (3 Bft)
26.10.2014 05:08 10,7 C 9,4 C 98 % 1023,9 hPa 0,0 l/m 0 min 0 min 0 W/m 16,7 km/h (3 Bft)
26.10.2014 05:10 10,7 C 9,4 C 98 % 1023,8 hPa 0,0 l/m 0 min 0 min 0 W/m 12,6 km/h (3 Bft)
26.10.2014 05:12 10,7 C 9,4 C 98 % 1023,9 hPa 0,0 l/m 0 min 0 min 0 W/m 10,5 km/h (2 Bft)
26.10.2014 05:14 10,7 C 9,4 C 98 % 1023,8 hPa 0,0 l/m 0 min 0 min 0 W/m 6,3 km/h (2 Bft)
26.10.2014 05:16 10,7 C 9,4 C 98 % 1023,9 hPa 0,0 l/m 0 min 0 min 0 W/m 8,4 km/h (2 Bft)
26.10.2014 05:18 10,7 C 9,4 C 98 % 1023,8 hPa 0,0 l/m 0 min 0 min 0 W/m 12,6 km/h (3 Bft)
26.10.2014 05:20 10,7 C 9,4 C 98 % 1023,8 hPa 0,0 l/m 0 min 0 min 0 W/m 12,6 km/h (3 Bft)
26.10.2014 05:22 10,7 C 9,4 C 98 % 1023,9 hPa 0,0 l/m 0 min 0 min 0 W/m 6,3 km/h (2 Bft)
26.10.2014 05:24 10,7 C 9,4 C 98 % 1024,0 hPa 0,0 l/m 0 min 0 min 0 W/m 10,5 km/h (2 Bft)
26.10.2014 05:26 10,7 C 9,4 C 98 % 1024,0 hPa 0,0 l/m 0 min 0 min 0 W/m 6,3 km/h (2 Bft)
26.10.2014 05:28 10,7 C 9,4 C 98 % 1024,0 hPa 0,0 l/m 0 min 0 min 0 W/m 6,3 km/h (2 Bft)
26.10.2014 05:30 10,7 C 9,4 C 98 % 1024,0 hPa 0,0 l/m 0 min 0 min 0 W/m 6,3 km/h (2 Bft)
26.10.2014 05:32 10,7 C 9,4 C 98 % 1024,0 hPa 0,0 l/m 0 min 0 min 0 W/m 6,3 km/h (2 Bft)
26.10.2014 05:34 10,7 C 9,4 C 98 % 1024,1 hPa 0,0 l/m 0 min 0 min 0 W/m 8,4 km/h (2 Bft)
26.10.2014 05:36 10,7 C 9,4 C 98 % 1024,0 hPa 0,0 l/m 0 min 0 min 0 W/m 10,5 km/h (2 Bft)
26.10.2014 05:38 10,7 C 9,4 C 98 % 1024,1 hPa 0,0 l/m 0 min 0 min 0 W/m 10,5 km/h (2 Bft)
26.10.2014 05:40 10,7 C 9,4 C 98 % 1024,1 hPa 0,0 l/m 0 min 0 min 0 W/m 8,4 km/h (2 Bft)
26.10.2014 05:42 10,7 C 9,4 C 98 % 1024,2 hPa 0,0 l/m 0 min 0 min 0 W/m 8,4 km/h (2 Bft)
26.10.2014 05:44 10,7 C 9,4 C 98 % 1024,2 hPa 0,0 l/m 0 min 0 min 0 W/m 8,4 km/h (2 Bft)
26.10.2014 05:46 10,7 C 9,4 C 98 % 1024,1 hPa 0,0 l/m 0 min 0 min 0 W/m 6,3 km/h (2 Bft)
26.10.2014 05:48 10,7 C 9,4 C 98 % 1024,1 hPa 0,0 l/m 0 min 0 min 0 W/m 10,5 km/h (2 Bft)
26.10.2014 05:50 10,7 C 9,4 C 98 % 1024,2 hPa 0,0 l/m 0 min 0 min 0 W/m 10,5 km/h (2 Bft)
26.10.2014 05:52 10,6 C 9,4 C 98 % 1024,1 hPa 0,0 l/m 0 min 0 min 0 W/m 8,4 km/h (2 Bft)
26.10.2014 05:54 10,6 C 9,4 C 98 % 1024,1 hPa 0,0 l/m 0 min 0 min 0 W/m 10,5 km/h (2 Bft)
26.10.2014 05:56 10,7 C 9,4 C 98 % 1024,1 hPa 0,0 l/m 0 min 0 min 0 W/m 10,5 km/h (2 Bft)
26.10.2014 05:58 10,6 C 9,4 C 98 % 1024,1 hPa 0,0 l/m 0 min 0 min 0 W/m 10,5 km/h (2 Bft)
26.10.2014 06:00 10,6 C 9,4 C 98 % 1024,1 hPa 0,0 l/m 0 min 0 min 0 W/m 8,4 km/h (2 Bft)
26.10.2014 06:02 10,6 C 9,4 C 98 % 1024,1 hPa 0,0 l/m 0 min 0 min 0 W/m 10,5 km/h (2 Bft)
26.10.2014 06:05 10,6 C 9,4 C 98 % 1024,0 hPa 0,0 l/m 0 min 0 min 0 W/m 12,6 km/h (3 Bft)
26.10.2014 06:06 10,6 C 9,4 C 98 % 1024,0 hPa 0,0 l/m 0 min 0 min 0 W/m 10,5 km/h (2 Bft)
26.10.2014 06:08 10,6 C 9,4 C 98 % 1024,1 hPa 0,0 l/m 0 min 0 min 0 W/m 10,5 km/h (2 Bft)
26.10.2014 06:10 10,6 C 9,4 C 98 % 1024,0 hPa 0,0 l/m 0 min 0 min 0 W/m 8,4 km/h (2 Bft)
26.10.2014 06:12 10,6 C 9,4 C 98 % 1024,0 hPa 0,0 l/m 0 min 0 min 0 W/m 10,5 km/h (2 Bft)
26.10.2014 06:14 10,6 C 9,4 C 98 % 1024,1 hPa 0,0 l/m 0 min 0 min 0 W/m 10,5 km/h (2 Bft)
26.10.2014 06:16 10,6 C 9,4 C 98 % 1024,0 hPa 0,0 l/m 0 min 0 min 0 W/m 10,5 km/h (2 Bft)
26.10.2014 06:18 10,6 C 9,4 C 98 % 1024,0 hPa 0,0 l/m 0 min 0 min 0 W/m 10,5 km/h (2 Bft)
26.10.2014 06:20 10,6 C 9,4 C 98 % 1024,0 hPa 0,0 l/m 0 min 0 min 0 W/m 10,5 km/h (2 Bft)
26.10.2014 06:22 10,5 C 9,4 C 98 % 1024,0 hPa 0,0 l/m 0 min 0 min 0 W/m 12,6 km/h (3 Bft)
26.10.2014 06:24 10,5 C 9,4 C 98 % 1024,0 hPa 0,0 l/m 0 min 0 min 0 W/m 12,6 km/h (3 Bft)
26.10.2014 06:26 10,5 C 9,4 C 98 % 1024,0 hPa 0,0 l/m 0 min 0 min 0 W/m 10,5 km/h (2 Bft)
26.10.2014 06:28 10,5 C 9,4 C 98 % 1024,0 hPa 0,0 l/m 0 min 0 min 0 W/m 12,6 km/h (3 Bft)
26.10.2014 06:30 10,5 C 9,4 C 98 % 1024,0 hPa 0,0 l/m 0 min 0 min 0 W/m 12,6 km/h (3 Bft)
26.10.2014 06:32 10,5 C 9,4 C 98 % 1024,0 hPa 0,0 l/m 0 min 0 min 0 W/m 10,5 km/h (2 Bft)
26.10.2014 06:34 10,5 C 9,4 C 97 % 1024,0 hPa 0,0 l/m 0 min 0 min 0 W/m 6,3 km/h (2 Bft)
26.10.2014 06:36 10,5 C 9,4 C 98 % 1024,0 hPa 0,0 l/m 0 min 0 min 0 W/m 16,7 km/h (3 Bft)
26.10.2014 06:38 10,5 C 9,4 C 98 % 1024,0 hPa 0,0 l/m 0 min 0 min 0 W/m 10,5 km/h (2 Bft)
26.10.2014 06:40 10,5 C 9,4 C 98 % 1024,0 hPa 0,0 l/m 0 min 0 min 0 W/m 12,6 km/h (3 Bft)
26.10.2014 06:42 10,5 C 9,4 C 98 % 1024,0 hPa 0,0 l/m 0 min 0 min 0 W/m 10,5 km/h (2 Bft)
26.10.2014 06:44 10,5 C 9,4 C 98 % 1024,1 hPa 0,0 l/m 0 min 0 min 0 W/m 10,5 km/h (2 Bft)
26.10.2014 06:46 10,6 C 9,4 C 98 % 1024,0 hPa 0,0 l/m 0 min 0 min 0 W/m 8,4 km/h (2 Bft)
26.10.2014 06:48 10,5 C 9,4 C 98 % 1024,1 hPa 0,0 l/m 0 min 0 min 0 W/m 8,4 km/h (2 Bft)
26.10.2014 06:50 10,6 C 9,4 C 98 % 1024,1 hPa 0,0 l/m 0 min 0 min 0 W/m 10,5 km/h (2 Bft)
26.10.2014 06:52 10,5 C 9,4 C 98 % 1024,0 hPa 0,0 l/m 0 min 0 min 0 W/m 10,5 km/h (2 Bft)
26.10.2014 06:54 10,5 C 9,4 C 98 % 1024,1 hPa 0,0 l/m 0 min 0 min 0 W/m 10,5 km/h (2 Bft)
26.10.2014 06:56 10,6 C 9,4 C 97 % 1024,1 hPa 0,0 l/m 0 min 0 min 0 W/m 10,5 km/h (2 Bft)
26.10.2014 06:58 10,6 C 9,4 C 97 % 1024,1 hPa 0,0 l/m 0 min 0 min 0 W/m 10,5 km/h (2 Bft)
26.10.2014 07:00 10,6 C 9,4 C 97 % 1024,1 hPa 0,0 l/m 0 min 0 min 0 W/m 8,4 km/h (2 Bft)
26.10.2014 07:02 10,6 C 9,4 C 97 % 1024,0 hPa 0,0 l/m 0 min 0 min 0 W/m 10,5 km/h (2 Bft)
26.10.2014 07:04 10,6 C 9,4 C 97 % 1024,1 hPa 0,0 l/m 0 min 0 min 0 W/m 8,4 km/h (2 Bft)
26.10.2014 07:06 10,6 C 9,4 C 97 % 1024,1 hPa 0,0 l/m 0 min 0 min 1 W/m 6,3 km/h (2 Bft)
26.10.2014 07:08 10,6 C 9,4 C 97 % 1024,1 hPa 0,0 l/m 0 min 0 min 5 W/m 10,5 km/h (2 Bft)
26.10.2014 07:10 10,6 C 9,4 C 97 % 1024,1 hPa 0,0 l/m 0 min 0 min 5 W/m 10,5 km/h (2 Bft)
26.10.2014 07:12 10,6 C 9,4 C 97 % 1024,1 hPa 0,0 l/m 0 min 0 min 5 W/m 10,5 km/h (2 Bft)
26.10.2014 07:14 10,6 C 9,4 C 97 % 1024,1 hPa 0,0 l/m 0 min 0 min 5 W/m 8,4 km/h (2 Bft)
26.10.2014 07:16 10,6 C 9,4 C 97 % 1024,1 hPa 0,0 l/m 0 min 0 min 7 W/m 8,4 km/h (2 Bft)
26.10.2014 07:18 10,6 C 9,4 C 97 % 1024,1 hPa 0,0 l/m 0 min 0 min 7 W/m 10,5 km/h (2 Bft)
26.10.2014 07:20 10,6 C 9,4 C 97 % 1024,1 hPa 0,0 l/m 0 min 0 min 7 W/m 8,4 km/h (2 Bft)
26.10.2014 07:22 10,6 C 9,4 C 97 % 1024,1 hPa 0,0 l/m 0 min 0 min 7 W/m 8,4 km/h (2 Bft)
26.10.2014 07:24 10,6 C 9,4 C 97 % 1024,2 hPa 0,0 l/m 0 min 0 min 7 W/m 12,6 km/h (3 Bft)
26.10.2014 07:26 10,6 C 9,4 C 97 % 1024,2 hPa 0,0 l/m 0 min 0 min 8 W/m 8,4 km/h (2 Bft)
26.10.2014 07:28 10,6 C 9,4 C 97 % 1024,2 hPa 0,0 l/m 0 min 0 min 9 W/m 12,6 km/h (3 Bft)
26.10.2014 07:30 10,6 C 9,4 C 97 % 1024,3 hPa 0,0 l/m 0 min 0 min 11 W/m 10,5 km/h (2 Bft)
26.10.2014 07:32 10,6 C 9,4 C 97 % 1024,3 hPa 0,0 l/m 0 min 0 min 12 W/m 8,4 km/h (2 Bft)
26.10.2014 07:34 10,6 C 9,4 C 97 % 1024,2 hPa 0,0 l/m 0 min 0 min 14 W/m 10,5 km/h (2 Bft)
26.10.2014 07:36 10,6 C 9,4 C 97 % 1024,4 hPa 0,0 l/m 0 min 0 min 17 W/m 12,6 km/h (3 Bft)
26.10.2014 07:38 10,6 C 9,4 C 97 % 1024,4 hPa 0,0 l/m 0 min 0 min 18 W/m 10,5 km/h (2 Bft)
26.10.2014 07:40 10,7 C 9,4 C 97 % 1024,4 hPa 0,0 l/m 0 min 0 min 18 W/m 8,4 km/h (2 Bft)
26.10.2014 07:42 10,7 C 9,4 C 97 % 1024,4 hPa 0,0 l/m 0 min 0 min 18 W/m 8,4 km/h (2 Bft)
26.10.2014 07:44 10,7 C 9,4 C 96 % 1024,4 hPa 0,0 l/m 0 min 0 min 18 W/m 6,3 km/h (2 Bft)
26.10.2014 07:46 10,7 C 9,4 C 97 % 1024,5 hPa 0,0 l/m 0 min 0 min 18 W/m 8,4 km/h (2 Bft)
26.10.2014 07:48 10,7 C 9,4 C 97 % 1024,4 hPa 0,0 l/m 0 min 0 min 18 W/m 12,6 km/h (3 Bft)
26.10.2014 07:50 10,7 C 9,4 C 97 % 1024,5 hPa 0,0 l/m 0 min 0 min 17 W/m 8,4 km/h (2 Bft)
26.10.2014 07:52 10,7 C 9,4 C 97 % 1024,6 hPa 0,0 l/m 0 min 0 min 16 W/m 6,3 km/h (2 Bft)
26.10.2014 07:54 10,8 C 9,4 C 96 % 1024,6 hPa 0,0 l/m 0 min 0 min 16 W/m 8,4 km/h (2 Bft)
26.10.2014 07:56 10,8 C 9,4 C 96 % 1024,6 hPa 0,0 l/m 0 min 0 min 15 W/m 8,4 km/h (2 Bft)
26.10.2014 07:58 10,8 C 9,4 C 96 % 1024,6 hPa 0,0 l/m 0 min 0 min 16 W/m 8,4 km/h (2 Bft)
26.10.2014 08:00 10,8 C 9,4 C 96 % 1024,6 hPa 0,0 l/m 0 min 0 min 16 W/m 8,4 km/h (2 Bft)
26.10.2014 08:02 10,8 C 9,4 C 96 % 1024,6 hPa 0,0 l/m 0 min 0 min 16 W/m 6,3 km/h (2 Bft)
26.10.2014 08:04 10,8 C 9,4 C 96 % 1024,6 hPa 0,0 l/m 0 min 0 min 16 W/m 8,4 km/h (2 Bft)
26.10.2014 08:06 10,8 C 9,4 C 96 % 1024,6 hPa 0,0 l/m 0 min 0 min 16 W/m 10,5 km/h (2 Bft)
26.10.2014 08:08 10,8 C 9,4 C 96 % 1024,7 hPa 0,0 l/m 0 min 0 min 18 W/m 8,4 km/h (2 Bft)
26.10.2014 08:10 10,8 C 9,4 C 96 % 1024,7 hPa 0,0 l/m 0 min 0 min 18 W/m 10,5 km/h (2 Bft)
26.10.2014 08:12 10,9 C 10,0 C 96 % 1024,7 hPa 0,0 l/m 0 min 0 min 18 W/m 10,5 km/h (2 Bft)
26.10.2014 08:14 10,9 C 10,0 C 96 % 1024,7 hPa 0,0 l/m 0 min 0 min 19 W/m 12,6 km/h (3 Bft)
26.10.2014 08:16 10,9 C 10,0 C 96 % 1024,7 hPa 0,0 l/m 0 min 0 min 19 W/m 8,4 km/h (2 Bft)
26.10.2014 08:18 10,9 C 10,0 C 96 % 1024,8 hPa 0,0 l/m 0 min 0 min 21 W/m 8,4 km/h (2 Bft)
26.10.2014 08:20 10,9 C 10,0 C 96 % 1024,8 hPa 0,0 l/m 0 min 0 min 21 W/m 10,5 km/h (2 Bft)
26.10.2014 08:22 10,9 C 10,0 C 96 % 1024,8 hPa 0,0 l/m 0 min 0 min 22 W/m 12,6 km/h (3 Bft)
26.10.2014 08:24 10,9 C 10,0 C 96 % 1024,9 hPa 0,0 l/m 0 min 0 min 25 W/m 10,5 km/h (2 Bft)
26.10.2014 08:26 10,9 C 10,0 C 96 % 1024,9 hPa 0,0 l/m 0 min 0 min 26 W/m 14,6 km/h (3 Bft)
26.10.2014 08:28 10,9 C 10,0 C 96 % 1024,9 hPa 0,0 l/m 0 min 0 min 26 W/m 8,4 km/h (2 Bft)
26.10.2014 08:30 11,0 C 10,0 C 96 % 1024,9 hPa 0,0 l/m 0 min 0 min 27 W/m 8,4 km/h (2 Bft)
26.10.2014 08:32 11,0 C 10,0 C 96 % 1024,9 hPa 0,0 l/m 0 min 0 min 30 W/m 14,6 km/h (3 Bft)
26.10.2014 08:34 11,0 C 10,0 C 95 % 1024,9 hPa 0,0 l/m 0 min 0 min 33 W/m 8,4 km/h (2 Bft)
26.10.2014 08:36 11,1 C 10,0 C 95 % 1024,8 hPa 0,0 l/m 0 min 0 min 35 W/m 12,6 km/h (3 Bft)
26.10.2014 08:38 11,1 C 10,0 C 95 % 1024,9 hPa 0,0 l/m 0 min 0 min 37 W/m 8,4 km/h (2 Bft)
26.10.2014 08:40 11,1 C 10,0 C 95 % 1024,8 hPa 0,0 l/m 0 min 0 min 39 W/m 8,4 km/h (2 Bft)
26.10.2014 08:42 11,1 C 10,0 C 95 % 1024,8 hPa 0,0 l/m 0 min 0 min 39 W/m 8,4 km/h (2 Bft)
26.10.2014 08:44 11,1 C 10,0 C 95 % 1024,8 hPa 0,0 l/m 0 min 0 min 40 W/m 10,5 km/h (2 Bft)
26.10.2014 08:46 11,2 C 10,0 C 95 % 1024,9 hPa 0,0 l/m 0 min 0 min 40 W/m 10,5 km/h (2 Bft)
26.10.2014 08:48 11,2 C 10,0 C 95 % 1024,9 hPa 0,0 l/m 0 min 0 min 41 W/m 8,4 km/h (2 Bft)
26.10.2014 08:50 11,2 C 10,0 C 95 % 1024,9 hPa 0,0 l/m 0 min 0 min 42 W/m 12,6 km/h (3 Bft)
26.10.2014 08:52 11,2 C 10,0 C 95 % 1025,0 hPa 0,0 l/m 0 min 0 min 43 W/m 10,5 km/h (2 Bft)
26.10.2014 08:54 11,2 C 10,0 C 95 % 1024,9 hPa 0,0 l/m 0 min 0 min 44 W/m 10,5 km/h (2 Bft)
26.10.2014 08:56 11,3 C 10,0 C 95 % 1024,9 hPa 0,0 l/m 0 min 0 min 45 W/m 10,5 km/h (2 Bft)
26.10.2014 08:58 11,3 C 10,0 C 95 % 1025,0 hPa 0,0 l/m 0 min 0 min 46 W/m 16,7 km/h (3 Bft)
26.10.2014 09:00 11,3 C 10,0 C 95 % 1024,9 hPa 0,0 l/m 0 min 0 min 46 W/m 10,5 km/h (2 Bft)
26.10.2014 09:02 11,3 C 10,6 C 95 % 1025,0 hPa 0,0 l/m 0 min 0 min 46 W/m 8,4 km/h (2 Bft)
26.10.2014 09:04 11,4 C 10,6 C 94 % 1025,0 hPa 0,0 l/m 0 min 0 min 47 W/m 8,4 km/h (2 Bft)
26.10.2014 09:06 11,4 C 10,6 C 94 % 1025,0 hPa 0,0 l/m 0 min 0 min 47 W/m 8,4 km/h (2 Bft)
26.10.2014 09:08 11,4 C 10,6 C 94 % 1025,1 hPa 0,0 l/m 0 min 0 min 47 W/m 6,3 km/h (2 Bft)
26.10.2014 09:10 11,4 C 10,6 C 94 % 1025,1 hPa 0,0 l/m 0 min 0 min 47 W/m 8,4 km/h (2 Bft)
26.10.2014 09:12 11,4 C 10,6 C 94 % 1025,1 hPa 0,0 l/m 0 min 0 min 50 W/m 6,3 km/h (2 Bft)
26.10.2014 09:14 11,4 C 10,6 C 94 % 1025,1 hPa 0,0 l/m 0 min 0 min 51 W/m 4,2 km/h (1 Bft)
26.10.2014 09:16 11,5 C 10,6 C 94 % 1025,1 hPa 0,0 l/m 0 min 0 min 53 W/m 4,2 km/h (1 Bft)
26.10.2014 09:18 11,5 C 10,6 C 94 % 1025,1 hPa 0,0 l/m 0 min 0 min 57 W/m 4,2 km/h (1 Bft)
26.10.2014 09:20 11,5 C 10,6 C 94 % 1025,1 hPa 0,0 l/m 0 min 0 min 60 W/m 6,3 km/h (2 Bft)
26.10.2014 09:22 11,6 C 10,6 C 94 % 1025,0 hPa 0,0 l/m 0 min 0 min 60 W/m 4,2 km/h (1 Bft)
26.10.2014 09:24 11,6 C 10,6 C 94 % 1025,1 hPa 0,0 l/m 0 min 0 min 60 W/m 6,3 km/h (2 Bft)
26.10.2014 09:26 11,6 C 10,6 C 94 % 1025,1 hPa 0,0 l/m 0 min 0 min 60 W/m 8,4 km/h (2 Bft)
26.10.2014 09:28 11,6 C 10,6 C 94 % 1025,1 hPa 0,0 l/m 0 min 0 min 62 W/m 8,4 km/h (2 Bft)
26.10.2014 09:30 11,7 C 10,6 C 94 % 1025,1 hPa 0,0 l/m 0 min 0 min 63 W/m 8,4 km/h (2 Bft)
26.10.2014 09:32 11,7 C 10,6 C 94 % 1025,1 hPa 0,0 l/m 0 min 0 min 63 W/m 8,4 km/h (2 Bft)
26.10.2014 09:34 11,7 C 10,6 C 94 % 1025,1 hPa 0,0 l/m 0 min 0 min 63 W/m 8,4 km/h (2 Bft)
26.10.2014 09:36 11,7 C 10,6 C 94 % 1025,1 hPa 0,0 l/m 0 min 0 min 63 W/m 8,4 km/h (2 Bft)
26.10.2014 09:38 11,7 C 10,6 C 94 % 1025,1 hPa 0,0 l/m 0 min 0 min 63 W/m 6,3 km/h (2 Bft)
26.10.2014 09:40 11,7 C 10,6 C 94 % 1025,0 hPa 0,0 l/m 0 min 0 min 64 W/m 8,4 km/h (2 Bft)
26.10.2014 09:42 11,8 C 11,1 C 94 % 1025,1 hPa 0,0 l/m 0 min 0 min 65 W/m 10,5 km/h (2 Bft)
26.10.2014 09:44 11,8 C 11,1 C 94 % 1025,0 hPa 0,0 l/m 0 min 0 min 66 W/m 6,3 km/h (2 Bft)
26.10.2014 09:46 11,8 C 11,1 C 94 % 1025,0 hPa 0,0 l/m 0 min 0 min 69 W/m 6,3 km/h (2 Bft)
26.10.2014 09:48 11,8 C 11,1 C 94 % 1025,0 hPa 0,0 l/m 0 min 0 min 71 W/m 8,4 km/h (2 Bft)
26.10.2014 09:50 11,9 C 11,1 C 93 % 1025,0 hPa 0,0 l/m 0 min 0 min 75 W/m 8,4 km/h (2 Bft)
26.10.2014 09:52 11,9 C 11,1 C 93 % 1025,1 hPa 0,0 l/m 0 min 0 min 78 W/m 10,5 km/h (2 Bft)
26.10.2014 09:54 11,9 C 11,1 C 93 % 1025,0 hPa 0,0 l/m 0 min 0 min 83 W/m 12,6 km/h (3 Bft)
26.10.2014 09:56 11,9 C 11,1 C 93 % 1025,0 hPa 0,0 l/m 0 min 0 min 87 W/m 12,6 km/h (3 Bft)
26.10.2014 09:58 12,0 C 11,1 C 93 % 1025,1 hPa 0,0 l/m 0 min 0 min 90 W/m 12,6 km/h (3 Bft)
26.10.2014 10:00 12,0 C 11,1 C 93 % 1025,1 hPa 0,0 l/m 0 min 0 min 94 W/m 8,4 km/h (2 Bft)
26.10.2014 10:02 12,1 C 11,1 C 93 % 1025,1 hPa 0,0 l/m 0 min 0 min 98 W/m 8,4 km/h (2 Bft)
26.10.2014 10:04 12,1 C 11,7 C 93 % 1025,1 hPa 0,0 l/m 0 min 0 min 103 W/m 10,5 km/h (2 Bft)
26.10.2014 10:06 12,1 C 11,7 C 93 % 1025,1 hPa 0,0 l/m 0 min 0 min 105 W/m 8,4 km/h (2 Bft)
26.10.2014 10:08 12,2 C 11,7 C 93 % 1025,2 hPa 0,0 l/m 0 min 0 min 105 W/m 10,5 km/h (2 Bft)
26.10.2014 10:10 12,2 C 11,7 C 93 % 1025,2 hPa 0,0 l/m 0 min 0 min 105 W/m 6,3 km/h (2 Bft)
26.10.2014 10:12 12,2 C 11,7 C 93 % 1025,2 hPa 0,0 l/m 0 min 0 min 104 W/m 12,6 km/h (3 Bft)
26.10.2014 10:14 12,2 C 11,7 C 93 % 1025,2 hPa 0,0 l/m 0 min 0 min 102 W/m 10,5 km/h (2 Bft)
26.10.2014 10:16 12,3 C 11,7 C 93 % 1025,2 hPa 0,0 l/m 0 min 0 min 99 W/m 12,6 km/h (3 Bft)
26.10.2014 10:18 12,3 C 11,7 C 93 % 1025,1 hPa 0,0 l/m 0 min 0 min 93 W/m 10,5 km/h (2 Bft)
26.10.2014 10:20 12,4 C 11,7 C 92 % 1025,1 hPa 0,0 l/m 0 min 0 min 90 W/m 10,5 km/h (2 Bft)
26.10.2014 10:22 12,4 C 11,7 C 92 % 1025,1 hPa 0,0 l/m 0 min 0 min 87 W/m 12,6 km/h (3 Bft)
26.10.2014 10:24 12,4 C 11,7 C 92 % 1025,2 hPa 0,0 l/m 0 min 0 min 85 W/m 6,3 km/h (2 Bft)
26.10.2014 10:26 12,4 C 11,7 C 92 % 1025,2 hPa 0,0 l/m 0 min 0 min 88 W/m 10,5 km/h (2 Bft)
26.10.2014 10:28 12,5 C 11,7 C 92 % 1025,2 hPa 0,0 l/m 0 min 0 min 90 W/m 10,5 km/h (2 Bft)
26.10.2014 10:30 12,5 C 11,7 C 92 % 1025,2 hPa 0,0 l/m 0 min 0 min 95 W/m 8,4 km/h (2 Bft)
26.10.2014 10:32 12,6 C 11,7 C 92 % 1025,2 hPa 0,0 l/m 0 min 0 min 101 W/m 8,4 km/h (2 Bft)
26.10.2014 10:34 12,6 C 11,7 C 92 % 1025,2 hPa 0,0 l/m 0 min 0 min 108 W/m 8,4 km/h (2 Bft)
26.10.2014 10:36 12,6 C 11,7 C 92 % 1025,2 hPa 0,0 l/m 0 min 0 min 113 W/m 10,5 km/h (2 Bft)
26.10.2014 10:38 12,7 C 12,2 C 91 % 1025,2 hPa 0,0 l/m 0 min 0 min 122 W/m 12,6 km/h (3 Bft)
26.10.2014 10:40 12,7 C 12,2 C 91 % 1025,2 hPa 0,0 l/m 0 min 0 min 132 W/m 12,6 km/h (3 Bft)
26.10.2014 10:42 12,7 C 12,2 C 91 % 1025,1 hPa 0,0 l/m 0 min 0 min 147 W/m 6,3 km/h (2 Bft)
26.10.2014 10:44 12,8 C 12,2 C 91 % 1025,2 hPa 0,0 l/m 0 min 0 min 162 W/m 12,6 km/h (3 Bft)
26.10.2014 10:46 12,8 C 12,2 C 91 % 1025,2 hPa 0,0 l/m 0 min 0 min 167 W/m 14,6 km/h (3 Bft)
26.10.2014 10:48 12,9 C 12,2 C 91 % 1025,2 hPa 0,0 l/m 0 min 0 min 166 W/m 12,6 km/h (3 Bft)
26.10.2014 10:50 12,9 C 12,8 C 91 % 1025,2 hPa 0,0 l/m 0 min 0 min 174 W/m 12,6 km/h (3 Bft)
26.10.2014 10:52 13,0 C 12,8 C 91 % 1025,2 hPa 0,0 l/m 0 min 0 min 192 W/m 16,7 km/h (3 Bft)
26.10.2014 10:54 13,0 C 12,8 C 91 % 1025,2 hPa 0,0 l/m 0 min 0 min 207 W/m 16,7 km/h (3 Bft)
26.10.2014 10:56 13,1 C 12,8 C 90 % 1025,2 hPa 0,0 l/m 0 min 0 min 220 W/m 16,7 km/h (3 Bft)
26.10.2014 10:58 13,2 C 12,8 C 90 % 1025,1 hPa 0,0 l/m 2 min 0 min 229 W/m 10,5 km/h (2 Bft)
26.10.2014 11:00 13,2 C 12,8 C 90 % 1025,1 hPa 0,0 l/m 0 min 0 min 225 W/m 14,6 km/h (3 Bft)
26.10.2014 11:02 13,3 C 12,8 C 90 % 1025,1 hPa 0,0 l/m 0 min 0 min 220 W/m 10,5 km/h (2 Bft)
26.10.2014 11:04 13,3 C 12,8 C 90 % 1025,1 hPa 0,0 l/m 0 min 0 min 217 W/m 10,5 km/h (2 Bft)
26.10.2014 11:06 13,4 C 13,3 C 90 % 1025,1 hPa 0,0 l/m 0 min 0 min 214 W/m 14,6 km/h (3 Bft)
26.10.2014 11:08 13,6 C 13,3 C 90 % 1025,2 hPa 0,0 l/m 0 min 0 min 215 W/m 18,8 km/h (3 Bft)
26.10.2014 11:10 13,6 C 13,3 C 89 % 1025,2 hPa 0,0 l/m 0 min 0 min 212 W/m 16,7 km/h (3 Bft)
26.10.2014 11:12 13,7 C 13,3 C 89 % 1025,1 hPa 0,0 l/m 0 min 0 min 212 W/m 18,8 km/h (3 Bft)
26.10.2014 11:14 13,7 C 13,3 C 89 % 1025,1 hPa 0,0 l/m 0 min 2 min 216 W/m 18,8 km/h (3 Bft)
26.10.2014 11:16 13,8 C 13,3 C 89 % 1025,1 hPa 0,0 l/m 0 min 0 min 214 W/m 10,5 km/h (2 Bft)
26.10.2014 11:18 13,9 C 13,3 C 89 % 1025,1 hPa 0,0 l/m 0 min 0 min 210 W/m 12,6 km/h (3 Bft)
26.10.2014 11:20 13,9 C 13,3 C 88 % 1025,1 hPa 0,0 l/m 0 min 0 min 216 W/m 12,6 km/h (3 Bft)
26.10.2014 11:22 14,0 C 13,3 C 89 % 1025,1 hPa 0,0 l/m 0 min 0 min 228 W/m 12,6 km/h (3 Bft)
26.10.2014 11:24 14,1 C 13,3 C 88 % 1025,1 hPa 0,0 l/m 2 min 0 min 238 W/m 10,5 km/h (2 Bft)
26.10.2014 11:26 14,2 C 13,9 C 88 % 1024,9 hPa 0,0 l/m 2 min 0 min 244 W/m 14,6 km/h (3 Bft)
26.10.2014 11:28 14,2 C 13,3 C 88 % 1024,9 hPa 0,0 l/m 2 min 0 min 252 W/m 16,7 km/h (3 Bft)
26.10.2014 11:30 14,2 C 13,3 C 87 % 1024,9 hPa 0,0 l/m 2 min 0 min 268 W/m 14,6 km/h (3 Bft)
26.10.2014 11:32 14,2 C 13,9 C 87 % 1024,9 hPa 0,0 l/m 2 min 0 min 283 W/m 16,7 km/h (3 Bft)
26.10.2014 11:34 14,3 C 13,9 C 87 % 1024,8 hPa 0,0 l/m 2 min 0 min 289 W/m 14,6 km/h (3 Bft)
26.10.2014 11:36 14,4 C 13,9 C 87 % 1024,8 hPa 0,0 l/m 2 min 0 min 337 W/m 14,6 km/h (3 Bft)
26.10.2014 11:38 14,4 C 13,9 C 86 % 1024,8 hPa 0,0 l/m 2 min 0 min 351 W/m 14,6 km/h (3 Bft)
26.10.2014 11:40 14,5 C 13,9 C 86 % 1024,8 hPa 0,0 l/m 2 min 0 min 370 W/m 14,6 km/h (3 Bft)
26.10.2014 11:42 14,6 C 13,9 C 86 % 1024,8 hPa 0,0 l/m 2 min 0 min 367 W/m 18,8 km/h (3 Bft)
26.10.2014 11:44 14,7 C 13,9 C 86 % 1024,7 hPa 0,0 l/m 2 min 0 min 363 W/m 27,2 km/h (4 Bft)
26.10.2014 11:46 14,8 C 13,9 C 85 % 1024,7 hPa 0,0 l/m 2 min 0 min 373 W/m 16,7 km/h (3 Bft)
26.10.2014 11:48 14,9 C 13,9 C 84 % 1024,8 hPa 0,0 l/m 2 min 0 min 322 W/m 18,8 km/h (3 Bft)
26.10.2014 11:50 14,9 C 13,9 C 84 % 1024,7 hPa 0,0 l/m 2 min 0 min 328 W/m 18,8 km/h (3 Bft)
26.10.2014 11:52 15,0 C 13,9 C 84 % 1024,8 hPa 0,0 l/m 2 min 0 min 253 W/m 18,8 km/h (3 Bft)
26.10.2014 11:54 15,1 C 13,9 C 83 % 1024,8 hPa 0,0 l/m 2 min 0 min 247 W/m 14,6 km/h (3 Bft)
26.10.2014 11:56 15,1 C 13,9 C 83 % 1024,7 hPa 0,0 l/m 2 min 0 min 285 W/m 23,0 km/h (4 Bft)
26.10.2014 11:58 15,2 C 13,9 C 83 % 1024,7 hPa 0,0 l/m 2 min 0 min 293 W/m 14,6 km/h (3 Bft)
26.10.2014 12:00 15,2 C 13,9 C 82 % 1024,7 hPa 0,0 l/m 2 min 0 min 274 W/m 14,6 km/h (3 Bft)
26.10.2014 12:02 15,2 C 13,9 C 82 % 1024,7 hPa 0,0 l/m 2 min 0 min 347 W/m 14,6 km/h (3 Bft)
26.10.2014 12:05 15,3 C 13,9 C 82 % 1024,6 hPa 0,0 l/m 2 min 0 min 383 W/m 16,7 km/h (3 Bft)
26.10.2014 12:06 15,3 C 13,9 C 82 % 1024,6 hPa 0,0 l/m 1 min 0 min 369 W/m 18,8 km/h (3 Bft)
26.10.2014 12:08 15,4 C 13,9 C 82 % 1024,6 hPa 0,0 l/m 2 min 0 min 381 W/m 14,6 km/h (3 Bft)
26.10.2014 12:10 15,4 C 13,9 C 82 % 1024,6 hPa 0,0 l/m 2 min 0 min 359 W/m 16,7 km/h (3 Bft)
26.10.2014 12:12 15,5 C 13,9 C 81 % 1024,6 hPa 0,0 l/m 2 min 0 min 323 W/m 12,6 km/h (3 Bft)
26.10.2014 12:14 15,6 C 14,4 C 81 % 1024,6 hPa 0,0 l/m 2 min 0 min 254 W/m 14,6 km/h (3 Bft)
26.10.2014 12:16 15,6 C 14,4 C 81 % 1024,6 hPa 0,0 l/m 2 min 0 min 272 W/m 12,6 km/h (3 Bft)
26.10.2014 12:18 15,7 C 14,4 C 81 % 1024,6 hPa 0,0 l/m 2 min 0 min 359 W/m 14,6 km/h (3 Bft)
26.10.2014 12:20 15,7 C 14,4 C 80 % 1024,6 hPa 0,0 l/m 2 min 0 min 377 W/m 23,0 km/h (4 Bft)
26.10.2014 12:22 15,8 C 14,4 C 80 % 1024,6 hPa 0,0 l/m 2 min 0 min 414 W/m 14,6 km/h (3 Bft)
26.10.2014 12:24 15,9 C 14,4 C 80 % 1024,6 hPa 0,0 l/m 2 min 0 min 437 W/m 14,6 km/h (3 Bft)
26.10.2014 12:26 16,0 C 15,0 C 80 % 1024,7 hPa 0,0 l/m 2 min 0 min 492 W/m 20,9 km/h (4 Bft)
26.10.2014 12:28 16,1 C 15,0 C 80 % 1024,6 hPa 0,0 l/m 2 min 0 min 526 W/m 14,6 km/h (3 Bft)
26.10.2014 12:30 16,2 C 15,0 C 79 % 1024,7 hPa 0,0 l/m 2 min 0 min 479 W/m 14,6 km/h (3 Bft)
26.10.2014 12:32 16,3 C 15,0 C 78 % 1024,6 hPa 0,0 l/m 2 min 0 min 496 W/m 18,8 km/h (3 Bft)
26.10.2014 12:34 16,4 C 15,0 C 78 % 1024,6 hPa 0,0 l/m 2 min 0 min 427 W/m 14,6 km/h (3 Bft)
26.10.2014 12:36 16,5 C 15,0 C 76 % 1024,5 hPa 0,0 l/m 2 min 0 min 367 W/m 16,7 km/h (3 Bft)
26.10.2014 12:38 16,6 C 15,6 C 76 % 1024,6 hPa 0,0 l/m 2 min 0 min 354 W/m 16,7 km/h (3 Bft)
26.10.2014 12:40 16,6 C 15,0 C 75 % 1024,6 hPa 0,0 l/m 2 min 0 min 338 W/m 18,8 km/h (3 Bft)
26.10.2014 12:42 16,7 C 15,6 C 74 % 1024,6 hPa 0,0 l/m 2 min 0 min 329 W/m 14,6 km/h (3 Bft)
26.10.2014 12:44 16,7 C 15,6 C 73 % 1024,6 hPa 0,0 l/m 2 min 0 min 322 W/m 10,5 km/h (2 Bft)
26.10.2014 12:46 16,7 C 15,6 C 73 % 1024,5 hPa 0,0 l/m 2 min 0 min 295 W/m 10,5 km/h (2 Bft)
26.10.2014 12:48 16,7 C 15,0 C 72 % 1024,6 hPa 0,0 l/m 2 min 0 min 254 W/m 20,9 km/h (4 Bft)
26.10.2014 12:50 16,7 C 15,0 C 71 % 1024,5 hPa 0,0 l/m 0 min 0 min 210 W/m 23,0 km/h (4 Bft)
26.10.2014 12:52 16,7 C 14,4 C 70 % 1024,5 hPa 0,0 l/m 0 min 0 min 187 W/m 12,6 km/h (3 Bft)
26.10.2014 12:54 16,7 C 14,4 C 70 % 1024,5 hPa 0,0 l/m 0 min 0 min 177 W/m 14,6 km/h (3 Bft)
26.10.2014 12:56 16,7 C 14,4 C 70 % 1024,5 hPa 0,0 l/m 0 min 0 min 178 W/m 16,7 km/h (3 Bft)
26.10.2014 12:58 16,7 C 14,4 C 70 % 1024,6 hPa 0,0 l/m 0 min 0 min 193 W/m 14,6 km/h (3 Bft)
26.10.2014 13:00 16,6 C 14,4 C 70 % 1024,6 hPa 0,0 l/m 0 min 0 min 202 W/m 6,3 km/h (2 Bft)
26.10.2014 13:02 16,6 C 14,4 C 71 % 1024,6 hPa 0,0 l/m 0 min 0 min 205 W/m 14,6 km/h (3 Bft)
26.10.2014 13:04 16,6 C 14,4 C 70 % 1024,6 hPa 0,0 l/m 0 min 0 min 197 W/m 14,6 km/h (3 Bft)
26.10.2014 13:06 16,6 C 14,4 C 69 % 1024,6 hPa 0,0 l/m 0 min 0 min 187 W/m 18,8 km/h (3 Bft)
26.10.2014 13:08 16,6 C 14,4 C 69 % 1024,5 hPa 0,0 l/m 0 min 0 min 192 W/m 16,7 km/h (3 Bft)
26.10.2014 13:10 16,5 C 14,4 C 68 % 1024,5 hPa 0,0 l/m 0 min 0 min 206 W/m 18,8 km/h (3 Bft)
26.10.2014 13:12 16,4 C 14,4 C 69 % 1024,6 hPa 0,0 l/m 0 min 0 min 212 W/m 12,6 km/h (3 Bft)
26.10.2014 13:14 16,4 C 14,4 C 69 % 1024,6 hPa 0,0 l/m 0 min 0 min 201 W/m 12,6 km/h (3 Bft)
26.10.2014 13:16 16,4 C 14,4 C 70 % 1024,6 hPa 0,0 l/m 0 min 0 min 183 W/m 10,5 km/h (2 Bft)
26.10.2014 13:18 16,4 C 14,4 C 70 % 1024,6 hPa 0,0 l/m 0 min 0 min 160 W/m 14,6 km/h (3 Bft)
26.10.2014 13:20 16,4 C 14,4 C 70 % 1024,6 hPa 0,0 l/m 0 min 0 min 178 W/m 12,6 km/h (3 Bft)
26.10.2014 13:22 16,4 C 14,4 C 70 % 1024,6 hPa 0,0 l/m 2 min 0 min 237 W/m 16,7 km/h (3 Bft)
26.10.2014 13:24 16,3 C 14,4 C 70 % 1024,6 hPa 0,0 l/m 0 min 0 min 183 W/m 16,7 km/h (3 Bft)
26.10.2014 13:26 16,3 C 14,4 C 71 % 1024,5 hPa 0,0 l/m 0 min 0 min 180 W/m 18,8 km/h (3 Bft)
26.10.2014 13:28 16,3 C 15,0 C 71 % 1024,5 hPa 0,0 l/m 0 min 0 min 222 W/m 14,6 km/h (3 Bft)
26.10.2014 13:30 16,3 C 15,0 C 71 % 1024,6 hPa 0,0 l/m 2 min 0 min 327 W/m 14,6 km/h (3 Bft)
26.10.2014 13:32 16,3 C 15,0 C 72 % 1024,6 hPa 0,0 l/m 2 min 0 min 423 W/m 12,6 km/h (3 Bft)
26.10.2014 13:34 16,3 C 15,6 C 73 % 1024,6 hPa 0,0 l/m 2 min 0 min 464 W/m 8,4 km/h (2 Bft)
26.10.2014 13:36 16,4 C 15,6 C 74 % 1024,5 hPa 0,0 l/m 2 min 0 min 468 W/m 12,6 km/h (3 Bft)
26.10.2014 13:38 16,4 C 15,6 C 74 % 1024,5 hPa 0,0 l/m 2 min 0 min 448 W/m 18,8 km/h (3 Bft)
26.10.2014 13:40 16,6 C 15,6 C 74 % 1024,5 hPa 0,0 l/m 2 min 0 min 388 W/m 14,6 km/h (3 Bft)
26.10.2014 13:42 16,6 C 15,6 C 73 % 1024,5 hPa 0,0 l/m 2 min 0 min 224 W/m 14,6 km/h (3 Bft)
26.10.2014 13:44 16,7 C 15,6 C 73 % 1024,5 hPa 0,0 l/m 0 min 0 min 204 W/m 10,5 km/h (2 Bft)
26.10.2014 13:46 16,7 C 15,6 C 73 % 1024,5 hPa 0,0 l/m 0 min 0 min 210 W/m 16,7 km/h (3 Bft)
26.10.2014 13:48 16,7 C 15,6 C 72 % 1024,5 hPa 0,0 l/m 0 min 0 min 204 W/m 16,7 km/h (3 Bft)
26.10.2014 13:50 16,8 C 15,6 C 72 % 1024,5 hPa 0,0 l/m 0 min 0 min 198 W/m 10,5 km/h (2 Bft)
26.10.2014 13:52 16,8 C 15,6 C 72 % 1024,4 hPa 0,0 l/m 0 min 0 min 192 W/m 10,5 km/h (2 Bft)
26.10.2014 13:54 16,8 C 15,6 C 72 % 1024,4 hPa 0,0 l/m 0 min 0 min 182 W/m 10,5 km/h (2 Bft)
26.10.2014 13:56 16,8 C 15,6 C 72 % 1024,4 hPa 0,0 l/m 0 min 0 min 172 W/m 12,6 km/h (3 Bft)
26.10.2014 13:58 16,8 C 15,6 C 72 % 1024,4 hPa 0,0 l/m 0 min 0 min 172 W/m 10,5 km/h (2 Bft)
26.10.2014 14:00 16,8 C 15,6 C 72 % 1024,4 hPa 0,0 l/m 0 min 0 min 178 W/m 8,4 km/h (2 Bft)
26.10.2014 14:02 16,8 C 15,6 C 73 % 1024,4 hPa 0,0 l/m 0 min 0 min 176 W/m 10,5 km/h (2 Bft)
26.10.2014 14:04 16,8 C 15,6 C 73 % 1024,4 hPa 0,0 l/m 0 min 0 min 168 W/m 10,5 km/h (2 Bft)
26.10.2014 14:06 16,8 C 15,6 C 73 % 1024,4 hPa 0,0 l/m 0 min 0 min 152 W/m 12,6 km/h (3 Bft)
26.10.2014 14:08 16,8 C 15,6 C 73 % 1024,4 hPa 0,0 l/m 0 min 0 min 132 W/m 8,4 km/h (2 Bft)
26.10.2014 14:10 16,8 C 15,0 C 73 % 1024,3 hPa 0,0 l/m 0 min 0 min 120 W/m 10,5 km/h (2 Bft)
26.10.2014 14:12 16,8 C 15,0 C 73 % 1024,3 hPa 0,0 l/m 0 min 0 min 117 W/m 8,4 km/h (2 Bft)
26.10.2014 14:14 16,8 C 15,0 C 73 % 1024,4 hPa 0,0 l/m 0 min 0 min 119 W/m 8,4 km/h (2 Bft)
26.10.2014 14:16 16,7 C 15,0 C 73 % 1024,4 hPa 0,0 l/m 0 min 0 min 122 W/m 6,3 km/h (2 Bft)
26.10.2014 14:18 16,7 C 15,0 C 71 % 1024,3 hPa 0,0 l/m 0 min 0 min 120 W/m 16,7 km/h (3 Bft)
26.10.2014 14:20 16,6 C 15,0 C 71 % 1024,2 hPa 0,0 l/m 0 min 0 min 115 W/m 10,5 km/h (2 Bft)
26.10.2014 14:22 16,6 C 15,0 C 71 % 1024,3 hPa 0,0 l/m 0 min 0 min 111 W/m 6,3 km/h (2 Bft)
26.10.2014 14:24 16,6 C 15,0 C 71 % 1024,3 hPa 0,0 l/m 0 min 0 min 108 W/m 8,4 km/h (2 Bft)
26.10.2014 14:26 16,6 C 15,0 C 72 % 1024,3 hPa 0,0 l/m 0 min 0 min 114 W/m 8,4 km/h (2 Bft)
26.10.2014 14:28 16,6 C 15,0 C 72 % 1024,3 hPa 0,0 l/m 0 min 0 min 126 W/m 6,3 km/h (2 Bft)
26.10.2014 14:30 16,5 C 15,0 C 72 % 1024,3 hPa 0,0 l/m 0 min 0 min 128 W/m 6,3 km/h (2 Bft)
26.10.2014 14:32 16,5 C 15,0 C 72 % 1024,3 hPa 0,0 l/m 0 min 0 min 124 W/m 8,4 km/h (2 Bft)
26.10.2014 14:34 16,5 C 15,0 C 72 % 1024,3 hPa 0,0 l/m 0 min 0 min 127 W/m 8,4 km/h (2 Bft)
26.10.2014 14:36 16,5 C 15,0 C 73 % 1024,3 hPa 0,0 l/m 0 min 0 min 129 W/m 8,4 km/h (2 Bft)
26.10.2014 14:38 16,5 C 15,0 C 73 % 1024,3 hPa 0,0 l/m 0 min 0 min 136 W/m 8,4 km/h (2 Bft)
26.10.2014 14:40 16,5 C 15,0 C 73 % 1024,2 hPa 0,0 l/m 0 min 0 min 144 W/m 12,6 km/h (3 Bft)
26.10.2014 14:42 16,5 C 15,0 C 73 % 1024,2 hPa 0,0 l/m 0 min 0 min 169 W/m 12,6 km/h (3 Bft)
26.10.2014 14:44 16,5 C 15,0 C 73 % 1024,1 hPa 0,0 l/m 2 min 0 min 240 W/m 10,5 km/h (2 Bft)
26.10.2014 14:46 16,5 C 15,0 C 73 % 1024,1 hPa 0,0 l/m 2 min 0 min 239 W/m 8,4 km/h (2 Bft)
26.10.2014 14:48 16,5 C 15,0 C 72 % 1024,1 hPa 0,0 l/m 2 min 0 min 215 W/m 12,6 km/h (3 Bft)
26.10.2014 14:50 16,5 C 15,0 C 71 % 1024,2 hPa 0,0 l/m 2 min 0 min 202 W/m 12,6 km/h (3 Bft)
26.10.2014 14:52 16,5 C 14,4 C 71 % 1024,2 hPa 0,0 l/m 0 min 0 min 150 W/m 8,4 km/h (2 Bft)
26.10.2014 14:54 16,5 C 14,4 C 71 % 1024,2 hPa 0,0 l/m 2 min 0 min 175 W/m 10,5 km/h (2 Bft)
26.10.2014 14:56 16,6 C 14,4 C 72 % 1024,1 hPa 0,0 l/m 2 min 0 min 182 W/m 10,5 km/h (2 Bft)
26.10.2014 14:58 16,6 C 14,4 C 72 % 1024,0 hPa 0,0 l/m 0 min 0 min 118 W/m 14,6 km/h (3 Bft)
26.10.2014 15:00 16,6 C 14,4 C 72 % 1024,0 hPa 0,0 l/m 0 min 0 min 139 W/m 12,6 km/h (3 Bft)
26.10.2014 15:02 16,6 C 14,4 C 72 % 1024,0 hPa 0,0 l/m 2 min 0 min 205 W/m 14,6 km/h (3 Bft)
26.10.2014 15:04 16,6 C 14,4 C 72 % 1024,0 hPa 0,0 l/m 2 min 0 min 172 W/m 10,5 km/h (2 Bft)
26.10.2014 15:06 16,6 C 14,4 C 72 % 1024,0 hPa 0,0 l/m 2 min 0 min 160 W/m 10,5 km/h (2 Bft)
26.10.2014 15:08 16,6 C 14,4 C 72 % 1024,0 hPa 0,0 l/m 0 min 0 min 139 W/m 16,7 km/h (3 Bft)
26.10.2014 15:10 16,6 C 14,4 C 71 % 1024,0 hPa 0,0 l/m 0 min 0 min 122 W/m 14,6 km/h (3 Bft)
26.10.2014 15:12 16,6 C 14,4 C 71 % 1024,0 hPa 0,0 l/m 0 min 0 min 120 W/m 8,4 km/h (2 Bft)
26.10.2014 15:14 16,6 C 14,4 C 71 % 1023,9 hPa 0,0 l/m 0 min 0 min 121 W/m 10,5 km/h (2 Bft)
26.10.2014 15:16 16,6 C 14,4 C 71 % 1023,9 hPa 0,0 l/m 0 min 0 min 132 W/m 10,5 km/h (2 Bft)
26.10.2014 15:18 16,6 C 14,4 C 71 % 1023,9 hPa 0,0 l/m 0 min 0 min 144 W/m 10,5 km/h (2 Bft)
26.10.2014 15:20 16,6 C 14,4 C 71 % 1024,0 hPa 0,0 l/m 2 min 0 min 153 W/m 8,4 km/h (2 Bft)
26.10.2014 15:22 16,6 C 14,4 C 71 % 1023,9 hPa 0,0 l/m 2 min 0 min 159 W/m 6,3 km/h (2 Bft)
26.10.2014 15:24 16,6 C 14,4 C 72 % 1023,9 hPa 0,0 l/m 2 min 0 min 155 W/m 6,3 km/h (2 Bft)
26.10.2014 15:26 16,6 C 14,4 C 72 % 1023,9 hPa 0,0 l/m 2 min 0 min 150 W/m 8,4 km/h (2 Bft)
26.10.2014 15:28 16,6 C 14,4 C 72 % 1023,9 hPa 0,0 l/m 2 min 0 min 150 W/m 6,3 km/h (2 Bft)
26.10.2014 15:30 16,6 C 14,4 C 72 % 1023,9 hPa 0,0 l/m 2 min 0 min 141 W/m 4,2 km/h (1 Bft)
26.10.2014 15:32 16,6 C 14,4 C 72 % 1024,0 hPa 0,0 l/m 2 min 0 min 131 W/m 8,4 km/h (2 Bft)
26.10.2014 15:34 16,6 C 14,4 C 72 % 1023,9 hPa 0,0 l/m 0 min 0 min 125 W/m 10,5 km/h (2 Bft)
26.10.2014 15:36 16,6 C 14,4 C 71 % 1023,8 hPa 0,0 l/m 0 min 0 min 123 W/m 12,6 km/h (3 Bft)
26.10.2014 15:38 16,6 C 13,9 C 72 % 1023,9 hPa 0,0 l/m 0 min 0 min 122 W/m 10,5 km/h (2 Bft)
26.10.2014 15:40 16,5 C 13,9 C 72 % 1023,9 hPa 0,0 l/m 0 min 0 min 120 W/m 8,4 km/h (2 Bft)
26.10.2014 15:42 16,5 C 13,9 C 71 % 1023,9 hPa 0,0 l/m 0 min 0 min 117 W/m 14,6 km/h (3 Bft)
26.10.2014 15:44 16,4 C 13,9 C 71 % 1023,9 hPa 0,0 l/m 2 min 0 min 118 W/m 8,4 km/h (2 Bft)
26.10.2014 15:46 16,4 C 13,9 C 71 % 1023,9 hPa 0,0 l/m 2 min 0 min 123 W/m 10,5 km/h (2 Bft)
26.10.2014 15:48 16,4 C 13,9 C 71 % 1023,9 hPa 0,0 l/m 2 min 0 min 121 W/m 6,3 km/h (2 Bft)
26.10.2014 15:50 16,4 C 13,9 C 71 % 1023,8 hPa 0,0 l/m 2 min 0 min 121 W/m 8,4 km/h (2 Bft)
26.10.2014 15:52 16,4 C 13,9 C 71 % 1023,9 hPa 0,0 l/m 2 min 0 min 120 W/m 8,4 km/h (2 Bft)
26.10.2014 15:54 16,4 C 13,9 C 71 % 1023,9 hPa 0,0 l/m 2 min 0 min 119 W/m 10,5 km/h (2 Bft)
26.10.2014 15:56 16,3 C 13,9 C 71 % 1023,9 hPa 0,0 l/m 2 min 0 min 118 W/m 8,4 km/h (2 Bft)
26.10.2014 15:58 16,3 C 13,9 C 71 % 1023,9 hPa 0,0 l/m 2 min 0 min 117 W/m 6,3 km/h (2 Bft)
26.10.2014 16:00 16,3 C 13,9 C 71 % 1023,8 hPa 0,0 l/m 2 min 0 min 114 W/m 8,4 km/h (2 Bft)
26.10.2014 16:02 16,3 C 13,9 C 72 % 1023,9 hPa 0,0 l/m 2 min 0 min 111 W/m 4,2 km/h (1 Bft)
26.10.2014 16:04 16,3 C 13,9 C 72 % 1023,8 hPa 0,0 l/m 2 min 0 min 101 W/m 6,3 km/h (2 Bft)
26.10.2014 16:06 16,3 C 13,9 C 72 % 1023,9 hPa 0,0 l/m 2 min 0 min 93 W/m 4,2 km/h (1 Bft)
26.10.2014 16:08 16,3 C 13,9 C 72 % 1023,9 hPa 0,0 l/m 2 min 0 min 89 W/m 6,3 km/h (2 Bft)
26.10.2014 16:10 16,2 C 13,9 C 72 % 1023,9 hPa 0,0 l/m 2 min 0 min 86 W/m 6,3 km/h (2 Bft)
26.10.2014 16:12 16,2 C 13,9 C 73 % 1024,0 hPa 0,0 l/m 0 min 0 min 83 W/m 4,2 km/h (1 Bft)
26.10.2014 16:14 16,2 C 13,3 C 73 % 1024,0 hPa 0,0 l/m 0 min 0 min 80 W/m 4,2 km/h (1 Bft)
26.10.2014 16:16 16,2 C 13,3 C 73 % 1023,9 hPa 0,0 l/m 0 min 0 min 78 W/m 6,3 km/h (2 Bft)
26.10.2014 16:18 16,2 C 13,3 C 73 % 1024,0 hPa 0,0 l/m 0 min 0 min 74 W/m 4,2 km/h (1 Bft)
26.10.2014 16:20 16,2 C 13,3 C 73 % 1024,0 hPa 0,0 l/m 0 min 0 min 71 W/m 2,1 km/h (1 Bft)
26.10.2014 16:22 16,1 C 13,3 C 73 % 1024,0 hPa 0,0 l/m 0 min 0 min 69 W/m 4,2 km/h (1 Bft)
26.10.2014 16:24 16,1 C 13,3 C 73 % 1024,0 hPa 0,0 l/m 0 min 0 min 65 W/m 4,2 km/h (1 Bft)
26.10.2014 16:26 16,1 C 12,8 C 74 % 1024,0 hPa 0,0 l/m 0 min 0 min 62 W/m 4,2 km/h (1 Bft)
26.10.2014 16:28 16,1 C 12,8 C 74 % 1024,0 hPa 0,0 l/m 0 min 0 min 59 W/m 4,2 km/h (1 Bft)
26.10.2014 16:30 16,1 C 12,8 C 74 % 1024,0 hPa 0,0 l/m 0 min 0 min 56 W/m 4,2 km/h (1 Bft)
26.10.2014 16:32 16,1 C 12,8 C 74 % 1024,0 hPa 0,0 l/m 0 min 0 min 52 W/m 4,2 km/h (1 Bft)
26.10.2014 16:34 16,0 C 12,8 C 74 % 1024,0 hPa 0,0 l/m 0 min 0 min 47 W/m 4,2 km/h (1 Bft)
26.10.2014 16:36 15,9 C 12,8 C 75 % 1024,0 hPa 0,0 l/m 0 min 0 min 44 W/m 2,1 km/h (1 Bft)
26.10.2014 16:38 15,9 C 12,8 C 75 % 1024,0 hPa 0,0 l/m 0 min 0 min 41 W/m 4,2 km/h (1 Bft)
26.10.2014 16:40 15,9 C 12,8 C 75 % 1024,0 hPa 0,0 l/m 0 min 0 min 37 W/m 4,2 km/h (1 Bft)
26.10.2014 16:42 15,9 C 12,2 C 75 % 1024,0 hPa 0,0 l/m 0 min 0 min 34 W/m 4,2 km/h (1 Bft)
26.10.2014 16:44 15,8 C 12,2 C 75 % 1024,0 hPa 0,0 l/m 0 min 0 min 32 W/m 4,2 km/h (1 Bft)
26.10.2014 16:46 15,8 C 12,2 C 75 % 1024,0 hPa 0,0 l/m 0 min 0 min 30 W/m 4,2 km/h (1 Bft)
26.10.2014 16:48 15,8 C 12,2 C 75 % 1024,0 hPa 0,0 l/m 0 min 0 min 27 W/m 2,1 km/h (1 Bft)
26.10.2014 16:50 15,7 C 12,2 C 76 % 1024,0 hPa 0,0 l/m 0 min 0 min 25 W/m 2,1 km/h (1 Bft)
26.10.2014 16:52 15,7 C 12,2 C 76 % 1023,9 hPa 0,0 l/m 0 min 0 min 24 W/m 2,1 km/h (1 Bft)
26.10.2014 16:54 15,7 C 12,2 C 76 % 1023,9 hPa 0,0 l/m 0 min 0 min 22 W/m 4,2 km/h (1 Bft)
26.10.2014 16:56 15,6 C 12,2 C 76 % 1024,0 hPa 0,0 l/m 0 min 0 min 20 W/m 4,2 km/h (1 Bft)
26.10.2014 16:58 15,6 C 11,7 C 77 % 1023,9 hPa 0,0 l/m 0 min 0 min 18 W/m 4,2 km/h (1 Bft)
26.10.2014 17:00 15,6 C 11,7 C 77 % 1023,9 hPa 0,0 l/m 0 min 0 min 15 W/m 4,2 km/h (1 Bft)
26.10.2014 17:02 15,5 C 11,7 C 77 % 1023,9 hPa 0,0 l/m 0 min 0 min 13 W/m 4,2 km/h (1 Bft)
26.10.2014 17:04 15,4 C 11,7 C 77 % 1023,9 hPa 0,0 l/m 0 min 0 min 12 W/m 4,2 km/h (1 Bft)
26.10.2014 17:06 15,4 C 11,7 C 78 % 1023,9 hPa 0,0 l/m 0 min 0 min 11 W/m 4,2 km/h (1 Bft)
26.10.2014 17:08 15,4 C 11,7 C 78 % 1023,9 hPa 0,0 l/m 0 min 0 min 10 W/m 4,2 km/h (1 Bft)
26.10.2014 17:10 15,3 C 11,7 C 79 % 1023,9 hPa 0,0 l/m 0 min 0 min 8 W/m 6,3 km/h (2 Bft)
26.10.2014 17:12 15,3 C 11,7 C 79 % 1023,9 hPa 0,0 l/m 0 min 0 min 7 W/m 6,3 km/h (2 Bft)
26.10.2014 17:14 15,2 C 11,7 C 79 % 1024,0 hPa 0,0 l/m 0 min 0 min 5 W/m 6,3 km/h (2 Bft)
26.10.2014 17:16 15,2 C 11,7 C 79 % 1023,9 hPa 0,0 l/m 0 min 0 min 5 W/m 4,2 km/h (1 Bft)
26.10.2014 17:18 15,1 C 11,7 C 80 % 1023,9 hPa 0,0 l/m 0 min 0 min 1 W/m 4,2 km/h (1 Bft)
26.10.2014 17:20 15,1 C 11,7 C 80 % 1023,9 hPa 0,0 l/m 0 min 0 min 0 W/m 4,2 km/h (1 Bft)
26.10.2014 17:22 15,1 C 11,7 C 80 % 1023,9 hPa 0,0 l/m 0 min 0 min 0 W/m 6,3 km/h (2 Bft)
26.10.2014 17:24 15,0 C 11,7 C 80 % 1023,9 hPa 0,0 l/m 0 min 0 min 0 W/m 6,3 km/h (2 Bft)
26.10.2014 17:26 14,9 C 11,7 C 80 % 1023,9 hPa 0,0 l/m 0 min 0 min 0 W/m 6,3 km/h (2 Bft)
26.10.2014 17:28 14,9 C 11,7 C 81 % 1023,9 hPa 0,0 l/m 0 min 0 min 0 W/m 8,4 km/h (2 Bft)
26.10.2014 17:30 14,8 C 11,7 C 81 % 1023,9 hPa 0,0 l/m 0 min 0 min 0 W/m 6,3 km/h (2 Bft)
26.10.2014 17:32 14,8 C 11,7 C 81 % 1023,9 hPa 0,0 l/m 0 min 0 min 0 W/m 6,3 km/h (2 Bft)
26.10.2014 17:34 14,7 C 11,7 C 82 % 1023,9 hPa 0,0 l/m 0 min 0 min 0 W/m 6,3 km/h (2 Bft)
26.10.2014 17:36 14,7 C 12,2 C 82 % 1023,9 hPa 0,0 l/m 0 min 0 min 0 W/m 6,3 km/h (2 Bft)
26.10.2014 17:38 14,7 C 12,2 C 82 % 1023,9 hPa 0,0 l/m 0 min 0 min 0 W/m 6,3 km/h (2 Bft)
26.10.2014 17:40 14,6 C 12,2 C 82 % 1023,9 hPa 0,0 l/m 0 min 0 min 0 W/m 4,2 km/h (1 Bft)
26.10.2014 17:42 14,6 C 12,2 C 82 % 1023,9 hPa 0,0 l/m 0 min 0 min 0 W/m 4,2 km/h (1 Bft)
26.10.2014 17:44 14,5 C 12,2 C 83 % 1023,9 hPa 0,0 l/m 0 min 0 min 0 W/m 8,4 km/h (2 Bft)
26.10.2014 17:46 14,4 C 12,2 C 83 % 1023,9 hPa 0,0 l/m 0 min 0 min 0 W/m 6,3 km/h (2 Bft)
26.10.2014 17:48 14,4 C 12,2 C 83 % 1023,9 hPa 0,0 l/m 0 min 0 min 0 W/m 6,3 km/h (2 Bft)
26.10.2014 17:50 14,4 C 12,2 C 83 % 1023,9 hPa 0,0 l/m 0 min 0 min 0 W/m 4,2 km/h (1 Bft)
26.10.2014 17:52 14,3 C 12,2 C 83 % 1023,9 hPa 0,0 l/m 0 min 0 min 0 W/m 4,2 km/h (1 Bft)
26.10.2014 17:54 14,3 C 12,2 C 83 % 1023,9 hPa 0,0 l/m 0 min 0 min 0 W/m 6,3 km/h (2 Bft)
26.10.2014 17:56 14,3 C 12,2 C 83 % 1024,0 hPa 0,0 l/m 0 min 0 min 0 W/m 6,3 km/h (2 Bft)
26.10.2014 17:58 14,2 C 12,2 C 84 % 1024,0 hPa 0,0 l/m 0 min 0 min 0 W/m 8,4 km/h (2 Bft)
26.10.2014 18:00 14,2 C 12,2 C 84 % 1023,9 hPa 0,0 l/m 0 min 0 min 0 W/m 8,4 km/h (2 Bft)
26.10.2014 18:02 14,2 C 12,2 C 84 % 1023,9 hPa 0,0 l/m 0 min 0 min 0 W/m 6,3 km/h (2 Bft)
26.10.2014 18:05 14,2 C 12,2 C 84 % 1023,9 hPa 0,0 l/m 0 min 0 min 0 W/m 8,4 km/h (2 Bft)
26.10.2014 18:06 14,2 C 12,2 C 84 % 1024,0 hPa 0,0 l/m 0 min 0 min 0 W/m 10,5 km/h (2 Bft)
26.10.2014 18:08 14,2 C 12,2 C 84 % 1023,9 hPa 0,0 l/m 0 min 0 min 0 W/m 8,4 km/h (2 Bft)
26.10.2014 18:10 14,2 C 12,2 C 84 % 1023,9 hPa 0,0 l/m 0 min 0 min 0 W/m 8,4 km/h (2 Bft)
26.10.2014 18:12 14,2 C 12,2 C 84 % 1024,0 hPa 0,0 l/m 0 min 0 min 0 W/m 8,4 km/h (2 Bft)
26.10.2014 18:14 14,2 C 12,2 C 84 % 1024,0 hPa 0,0 l/m 0 min 0 min 0 W/m 10,5 km/h (2 Bft)
26.10.2014 18:16 14,2 C 12,2 C 84 % 1023,9 hPa 0,0 l/m 0 min 0 min 0 W/m 8,4 km/h (2 Bft)
26.10.2014 18:18 14,1 C 12,2 C 84 % 1024,0 hPa 0,0 l/m 0 min 0 min 0 W/m 6,3 km/h (2 Bft)
26.10.2014 18:20 14,1 C 12,2 C 84 % 1024,0 hPa 0,0 l/m 0 min 0 min 0 W/m 6,3 km/h (2 Bft)
26.10.2014 18:22 14,1 C 12,2 C 85 % 1023,9 hPa 0,0 l/m 0 min 0 min 0 W/m 6,3 km/h (2 Bft)
26.10.2014 18:24 14,1 C 12,2 C 85 % 1023,9 hPa 0,0 l/m 0 min 0 min 0 W/m 6,3 km/h (2 Bft)
26.10.2014 18:26 14,0 C 12,2 C 85 % 1023,9 hPa 0,0 l/m 0 min 0 min 0 W/m 6,3 km/h (2 Bft)
26.10.2014 18:28 14,0 C 12,2 C 85 % 1024,0 hPa 0,0 l/m 0 min 0 min 0 W/m 8,4 km/h (2 Bft)
26.10.2014 18:30 14,0 C 12,2 C 85 % 1023,9 hPa 0,0 l/m 0 min 0 min 0 W/m 6,3 km/h (2 Bft)
26.10.2014 18:32 13,9 C 12,2 C 85 % 1024,0 hPa 0,0 l/m 0 min 0 min 0 W/m 6,3 km/h (2 Bft)
26.10.2014 18:34 13,9 C 12,2 C 85 % 1024,0 hPa 0,0 l/m 0 min 0 min 0 W/m 6,3 km/h (2 Bft)
26.10.2014 18:36 13,9 C 12,2 C 85 % 1024,0 hPa 0,0 l/m 0 min 0 min 0 W/m 10,5 km/h (2 Bft)
26.10.2014 18:38 13,9 C 12,2 C 85 % 1024,0 hPa 0,0 l/m 0 min 0 min 0 W/m 8,4 km/h (2 Bft)
26.10.2014 18:40 13,9 C 12,2 C 85 % 1023,9 hPa 0,0 l/m 0 min 0 min 0 W/m 6,3 km/h (2 Bft)
26.10.2014 18:42 13,9 C 12,2 C 85 % 1024,0 hPa 0,0 l/m 0 min 0 min 0 W/m 6,3 km/h (2 Bft)
26.10.2014 18:44 13,9 C 12,2 C 85 % 1023,9 hPa 0,0 l/m 0 min 0 min 0 W/m 6,3 km/h (2 Bft)
26.10.2014 18:46 13,9 C 12,2 C 85 % 1024,0 hPa 0,0 l/m 0 min 0 min 0 W/m 6,3 km/h (2 Bft)
26.10.2014 18:48 13,8 C 12,2 C 85 % 1024,0 hPa 0,0 l/m 0 min 0 min 0 W/m 6,3 km/h (2 Bft)
26.10.2014 18:50 13,8 C 12,2 C 85 % 1024,0 hPa 0,0 l/m 0 min 0 min 0 W/m 6,3 km/h (2 Bft)
26.10.2014 18:52 13,8 C 12,2 C 85 % 1024,0 hPa 0,0 l/m 0 min 0 min 0 W/m 6,3 km/h (2 Bft)
26.10.2014 18:54 13,8 C 12,2 C 85 % 1024,0 hPa 0,0 l/m 0 min 0 min 0 W/m 6,3 km/h (2 Bft)
26.10.2014 18:56 13,8 C 12,2 C 85 % 1024,0 hPa 0,0 l/m 0 min 0 min 0 W/m 6,3 km/h (2 Bft)
26.10.2014 18:58 13,8 C 11,7 C 85 % 1024,0 hPa 0,0 l/m 0 min 0 min 0 W/m 6,3 km/h (2 Bft)
26.10.2014 19:00 13,8 C 11,7 C 85 % 1024,0 hPa 0,0 l/m 0 min 0 min 0 W/m 6,3 km/h (2 Bft)
26.10.2014 19:02 13,8 C 11,7 C 85 % 1024,0 hPa 0,0 l/m 0 min 0 min 0 W/m 6,3 km/h (2 Bft)
26.10.2014 19:04 13,7 C 11,7 C 85 % 1024,0 hPa 0,0 l/m 0 min 0 min 0 W/m 6,3 km/h (2 Bft)
26.10.2014 19:06 13,7 C 12,2 C 85 % 1024,0 hPa 0,0 l/m 0 min 0 min 0 W/m 6,3 km/h (2 Bft)
26.10.2014 19:08 13,7 C 12,2 C 85 % 1024,0 hPa 0,0 l/m 0 min 0 min 0 W/m 4,2 km/h (1 Bft)
26.10.2014 19:10 13,7 C 12,2 C 85 % 1024,0 hPa 0,0 l/m 0 min 0 min 0 W/m 4,2 km/h (1 Bft)
26.10.2014 19:12 13,7 C 11,7 C 85 % 1024,0 hPa 0,0 l/m 0 min 0 min 0 W/m 8,4 km/h (2 Bft)
26.10.2014 19:14 13,7 C 11,7 C 85 % 1023,9 hPa 0,0 l/m 0 min 0 min 0 W/m 6,3 km/h (2 Bft)
26.10.2014 19:16 13,7 C 11,7 C 85 % 1023,9 hPa 0,0 l/m 0 min 0 min 0 W/m 10,5 km/h (2 Bft)
26.10.2014 19:18 13,7 C 11,7 C 85 % 1023,9 hPa 0,0 l/m 0 min 0 min 0 W/m 6,3 km/h (2 Bft)
26.10.2014 19:20 13,7 C 11,7 C 86 % 1023,9 hPa 0,0 l/m 0 min 0 min 0 W/m 12,6 km/h (3 Bft)
26.10.2014 19:22 13,6 C 11,7 C 86 % 1023,9 hPa 0,0 l/m 0 min 0 min 0 W/m 10,5 km/h (2 Bft)
26.10.2014 19:24 13,6 C 11,7 C 86 % 1023,9 hPa 0,0 l/m 0 min 0 min 0 W/m 8,4 km/h (2 Bft)
26.10.2014 19:26 13,6 C 11,7 C 86 % 1023,9 hPa 0,0 l/m 0 min 0 min 0 W/m 10,5 km/h (2 Bft)
26.10.2014 19:28 13,6 C 11,7 C 85 % 1023,9 hPa 0,0 l/m 0 min 0 min 0 W/m 10,5 km/h (2 Bft)
26.10.2014 19:30 13,6 C 11,7 C 85 % 1023,9 hPa 0,0 l/m 0 min 0 min 0 W/m 10,5 km/h (2 Bft)
26.10.2014 19:32 13,5 C 11,7 C 85 % 1023,9 hPa 0,0 l/m 0 min 0 min 0 W/m 10,5 km/h (2 Bft)
26.10.2014 19:34 13,5 C 11,7 C 85 % 1023,9 hPa 0,0 l/m 0 min 0 min 0 W/m 8,4 km/h (2 Bft)
26.10.2014 19:36 13,4 C 11,7 C 86 % 1023,9 hPa 0,0 l/m 0 min 0 min 0 W/m 8,4 km/h (2 Bft)
26.10.2014 19:38 13,4 C 11,7 C 86 % 1023,9 hPa 0,0 l/m 0 min 0 min 0 W/m 12,6 km/h (3 Bft)
26.10.2014 19:40 13,4 C 11,7 C 86 % 1023,9 hPa 0,0 l/m 0 min 0 min 0 W/m 8,4 km/h (2 Bft)
26.10.2014 19:42 13,4 C 11,7 C 86 % 1023,9 hPa 0,0 l/m 0 min 0 min 0 W/m 10,5 km/h (2 Bft)
26.10.2014 19:44 13,4 C 11,7 C 86 % 1023,9 hPa 0,0 l/m 0 min 0 min 0 W/m 8,4 km/h (2 Bft)
26.10.2014 19:46 13,4 C 11,7 C 86 % 1023,9 hPa 0,0 l/m 0 min 0 min 0 W/m 8,4 km/h (2 Bft)
26.10.2014 19:48 13,4 C 11,7 C 86 % 1023,9 hPa 0,0 l/m 0 min 0 min 0 W/m 6,3 km/h (2 Bft)
26.10.2014 19:50 13,4 C 11,7 C 86 % 1023,9 hPa 0,0 l/m 0 min 0 min 0 W/m 8,4 km/h (2 Bft)
26.10.2014 19:52 13,4 C 11,7 C 86 % 1023,9 hPa 0,0 l/m 0 min 0 min 0 W/m 10,5 km/h (2 Bft)
26.10.2014 19:54 13,4 C 11,7 C 86 % 1023,9 hPa 0,0 l/m 0 min 0 min 0 W/m 6,3 km/h (2 Bft)
26.10.2014 19:56 13,3 C 11,7 C 86 % 1023,9 hPa 0,0 l/m 0 min 0 min 0 W/m 8,4 km/h (2 Bft)
26.10.2014 19:58 13,3 C 11,7 C 86 % 1023,9 hPa 0,0 l/m 0 min 0 min 0 W/m 10,5 km/h (2 Bft)
26.10.2014 20:00 13,3 C 11,7 C 87 % 1024,0 hPa 0,0 l/m 0 min 0 min 0 W/m 8,4 km/h (2 Bft)
26.10.2014 20:02 13,3 C 11,7 C 87 % 1024,0 hPa 0,0 l/m 0 min 0 min 0 W/m 8,4 km/h (2 Bft)
26.10.2014 20:04 13,3 C 11,7 C 87 % 1024,0 hPa 0,0 l/m 0 min 0 min 0 W/m 10,5 km/h (2 Bft)
26.10.2014 20:06 13,3 C 11,1 C 87 % 1023,9 hPa 0,0 l/m 0 min 0 min 0 W/m 10,5 km/h (2 Bft)
26.10.2014 20:08 13,3 C 11,1 C 87 % 1023,9 hPa 0,0 l/m 0 min 0 min 0 W/m 10,5 km/h (2 Bft)
26.10.2014 20:10 13,3 C 11,1 C 87 % 1024,0 hPa 0,0 l/m 0 min 0 min 0 W/m 10,5 km/h (2 Bft)
26.10.2014 20:12 13,2 C 11,1 C 87 % 1024,0 hPa 0,0 l/m 0 min 0 min 0 W/m 12,6 km/h (3 Bft)
26.10.2014 20:14 13,2 C 11,1 C 86 % 1024,0 hPa 0,0 l/m 0 min 0 min 0 W/m 10,5 km/h (2 Bft)
26.10.2014 20:16 13,2 C 11,1 C 86 % 1024,0 hPa 0,0 l/m 0 min 0 min 0 W/m 12,6 km/h (3 Bft)
26.10.2014 20:18 13,2 C 11,1 C 86 % 1024,0 hPa 0,0 l/m 0 min 0 min 0 W/m 10,5 km/h (2 Bft)
26.10.2014 20:20 13,2 C 11,1 C 86 % 1024,1 hPa 0,0 l/m 0 min 0 min 0 W/m 10,5 km/h (2 Bft)
26.10.2014 20:22 13,1 C 11,1 C 86 % 1024,1 hPa 0,0 l/m 0 min 0 min 0 W/m 8,4 km/h (2 Bft)
26.10.2014 20:24 13,1 C 11,1 C 87 % 1024,1 hPa 0,0 l/m 0 min 0 min 0 W/m 8,4 km/h (2 Bft)
26.10.2014 20:26 13,1 C 11,1 C 87 % 1024,2 hPa 0,0 l/m 0 min 0 min 0 W/m 6,3 km/h (2 Bft)
26.10.2014 20:28 13,0 C 10,6 C 87 % 1024,2 hPa 0,0 l/m 0 min 0 min 0 W/m 8,4 km/h (2 Bft)
26.10.2014 20:30 13,0 C 10,6 C 87 % 1024,1 hPa 0,0 l/m 0 min 0 min 0 W/m 10,5 km/h (2 Bft)
26.10.2014 20:32 13,0 C 10,6 C 87 % 1024,2 hPa 0,0 l/m 0 min 0 min 0 W/m 10,5 km/h (2 Bft)
26.10.2014 20:34 12,9 C 10,6 C 87 % 1024,2 hPa 0,0 l/m 0 min 0 min 0 W/m 8,4 km/h (2 Bft)
26.10.2014 20:36 12,9 C 10,6 C 87 % 1024,3 hPa 0,0 l/m 0 min 0 min 0 W/m 10,5 km/h (2 Bft)
26.10.2014 20:38 12,9 C 10,6 C 87 % 1024,2 hPa 0,0 l/m 0 min 0 min 0 W/m 8,4 km/h (2 Bft)
26.10.2014 20:40 12,9 C 10,6 C 87 % 1024,3 hPa 0,0 l/m 0 min 0 min 0 W/m 8,4 km/h (2 Bft)
26.10.2014 20:42 12,8 C 10,6 C 87 % 1024,3 hPa 0,0 l/m 0 min 0 min 0 W/m 10,5 km/h (2 Bft)
26.10.2014 20:44 12,8 C 10,6 C 87 % 1024,2 hPa 0,0 l/m 0 min 0 min 0 W/m 12,6 km/h (3 Bft)
26.10.2014 20:46 12,8 C 10,6 C 87 % 1024,3 hPa 0,0 l/m 0 min 0 min 0 W/m 10,5 km/h (2 Bft)
26.10.2014 20:48 12,8 C 10,6 C 88 % 1024,3 hPa 0,0 l/m 0 min 0 min 0 W/m 8,4 km/h (2 Bft)
26.10.2014 20:50 12,8 C 10,6 C 88 % 1024,2 hPa 0,0 l/m 0 min 0 min 0 W/m 8,4 km/h (2 Bft)
26.10.2014 20:52 12,7 C 10,6 C 88 % 1024,3 hPa 0,0 l/m 0 min 0 min 0 W/m 10,5 km/h (2 Bft)
26.10.2014 20:54 12,7 C 10,6 C 88 % 1024,3 hPa 0,0 l/m 0 min 0 min 0 W/m 8,4 km/h (2 Bft)
26.10.2014 20:56 12,7 C 10,6 C 88 % 1024,3 hPa 0,0 l/m 0 min 0 min 0 W/m 8,4 km/h (2 Bft)
26.10.2014 20:58 12,7 C 11,1 C 88 % 1024,3 hPa 0,0 l/m 0 min 0 min 0 W/m 14,6 km/h (3 Bft)
26.10.2014 21:00 12,7 C 11,1 C 88 % 1024,4 hPa 0,0 l/m 0 min 0 min 0 W/m 10,5 km/h (2 Bft)
26.10.2014 21:02 12,7 C 10,6 C 88 % 1024,4 hPa 0,0 l/m 0 min 0 min 0 W/m 10,5 km/h (2 Bft)
26.10.2014 21:04 12,6 C 10,6 C 88 % 1024,4 hPa 0,0 l/m 0 min 0 min 0 W/m 14,6 km/h (3 Bft)
26.10.2014 21:06 12,6 C 10,6 C 88 % 1024,3 hPa 0,0 l/m 0 min 0 min 0 W/m 10,5 km/h (2 Bft)
26.10.2014 21:08 12,6 C 10,6 C 88 % 1024,4 hPa 0,0 l/m 0 min 0 min 0 W/m 10,5 km/h (2 Bft)
26.10.2014 21:10 12,6 C 10,6 C 88 % 1024,4 hPa 0,0 l/m 0 min 0 min 0 W/m 12,6 km/h (3 Bft)
26.10.2014 21:12 12,6 C 10,6 C 88 % 1024,4 hPa 0,0 l/m 0 min 0 min 0 W/m 8,4 km/h (2 Bft)
26.10.2014 21:14 12,5 C 10,6 C 89 % 1024,4 hPa 0,0 l/m 0 min 0 min 0 W/m 10,5 km/h (2 Bft)
26.10.2014 21:16 12,5 C 10,6 C 89 % 1024,4 hPa 0,0 l/m 0 min 0 min 0 W/m 10,5 km/h (2 Bft)
26.10.2014 21:18 12,5 C 10,0 C 89 % 1024,4 hPa 0,0 l/m 0 min 0 min 0 W/m 10,5 km/h (2 Bft)
26.10.2014 21:20 12,4 C 10,0 C 89 % 1024,4 hPa 0,0 l/m 0 min 0 min 0 W/m 10,5 km/h (2 Bft)
26.10.2014 21:22 12,4 C 10,0 C 89 % 1024,4 hPa 0,0 l/m 0 min 0 min 0 W/m 8,4 km/h (2 Bft)
26.10.2014 21:24 12,4 C 10,0 C 89 % 1024,5 hPa 0,0 l/m 0 min 0 min 0 W/m 12,6 km/h (3 Bft)
26.10.2014 21:26 12,3 C 10,0 C 89 % 1024,5 hPa 0,0 l/m 0 min 0 min 0 W/m 10,5 km/h (2 Bft)
26.10.2014 21:28 12,3 C 10,0 C 89 % 1024,5 hPa 0,0 l/m 0 min 0 min 0 W/m 10,5 km/h (2 Bft)
26.10.2014 21:30 12,3 C 10,0 C 89 % 1024,6 hPa 0,0 l/m 0 min 0 min 0 W/m 10,5 km/h (2 Bft)
26.10.2014 21:32 12,3 C 10,0 C 89 % 1024,6 hPa 0,0 l/m 0 min 0 min 0 W/m 10,5 km/h (2 Bft)
26.10.2014 21:34 12,3 C 10,6 C 89 % 1024,6 hPa 0,0 l/m 0 min 0 min 0 W/m 12,6 km/h (3 Bft)
26.10.2014 21:36 12,2 C 10,6 C 89 % 1024,6 hPa 0,0 l/m 0 min 0 min 0 W/m 12,6 km/h (3 Bft)
26.10.2014 21:38 12,2 C 10,6 C 89 % 1024,6 hPa 0,0 l/m 0 min 0 min 0 W/m 8,4 km/h (2 Bft)
26.10.2014 21:40 12,2 C 10,6 C 89 % 1024,5 hPa 0,0 l/m 0 min 0 min 0 W/m 6,3 km/h (2 Bft)
26.10.2014 21:42 12,2 C 10,6 C 89 % 1024,6 hPa 0,0 l/m 0 min 0 min 0 W/m 10,5 km/h (2 Bft)
26.10.2014 21:44 12,2 C 10,6 C 89 % 1024,6 hPa 0,0 l/m 0 min 0 min 0 W/m 6,3 km/h (2 Bft)
26.10.2014 21:46 12,2 C 10,6 C 90 % 1024,6 hPa 0,0 l/m 0 min 0 min 0 W/m 8,4 km/h (2 Bft)
26.10.2014 21:48 12,2 C 10,0 C 90 % 1024,6 hPa 0,0 l/m 0 min 0 min 0 W/m 12,6 km/h (3 Bft)
26.10.2014 21:50 12,1 C 10,0 C 90 % 1024,6 hPa 0,0 l/m 0 min 0 min 0 W/m 10,5 km/h (2 Bft)
26.10.2014 21:52 12,1 C 10,0 C 89 % 1024,6 hPa 0,0 l/m 0 min 0 min 0 W/m 10,5 km/h (2 Bft)
26.10.2014 21:54 12,1 C 10,0 C 89 % 1024,6 hPa 0,0 l/m 0 min 0 min 0 W/m 8,4 km/h (2 Bft)
26.10.2014 21:56 12,1 C 10,0 C 90 % 1024,6 hPa 0,0 l/m 0 min 0 min 0 W/m 8,4 km/h (2 Bft)
26.10.2014 21:58 12,0 C 10,0 C 90 % 1024,6 hPa 0,0 l/m 0 min 0 min 0 W/m 6,3 km/h (2 Bft)
26.10.2014 22:00 12,0 C 10,0 C 90 % 1024,6 hPa 0,0 l/m 0 min 0 min 0 W/m 8,4 km/h (2 Bft)
26.10.2014 22:02 12,0 C 10,0 C 90 % 1024,6 hPa 0,0 l/m 0 min 0 min 0 W/m 8,4 km/h (2 Bft)
26.10.2014 22:04 12,0 C 9,4 C 90 % 1024,6 hPa 0,0 l/m 0 min 0 min 0 W/m 8,4 km/h (2 Bft)
26.10.2014 22:06 11,9 C 9,4 C 90 % 1024,6 hPa 0,0 l/m 0 min 0 min 0 W/m 8,4 km/h (2 Bft)
26.10.2014 22:08 11,9 C 9,4 C 90 % 1024,6 hPa 0,0 l/m 0 min 0 min 0 W/m 8,4 km/h (2 Bft)
26.10.2014 22:10 11,9 C 9,4 C 90 % 1024,6 hPa 0,0 l/m 0 min 0 min 0 W/m 8,4 km/h (2 Bft)
26.10.2014 22:12 11,9 C 9,4 C 90 % 1024,6 hPa 0,0 l/m 0 min 0 min 0 W/m 8,4 km/h (2 Bft)
26.10.2014 22:14 11,8 C 9,4 C 90 % 1024,6 hPa 0,0 l/m 0 min 0 min 0 W/m 6,3 km/h (2 Bft)
26.10.2014 22:16 11,8 C 9,4 C 90 % 1024,6 hPa 0,0 l/m 0 min 0 min 0 W/m 6,3 km/h (2 Bft)
26.10.2014 22:18 11,8 C 9,4 C 90 % 1024,5 hPa 0,0 l/m 0 min 0 min 0 W/m 8,4 km/h (2 Bft)
26.10.2014 22:20 11,8 C 9,4 C 90 % 1024,6 hPa 0,0 l/m 0 min 0 min 0 W/m 8,4 km/h (2 Bft)
26.10.2014 22:22 11,7 C 9,4 C 90 % 1024,6 hPa 0,0 l/m 0 min 0 min 0 W/m 6,3 km/h (2 Bft)
26.10.2014 22:24 11,7 C 9,4 C 90 % 1024,6 hPa 0,0 l/m 0 min 0 min 0 W/m 8,4 km/h (2 Bft)
26.10.2014 22:26 11,7 C 9,4 C 90 % 1024,6 hPa 0,0 l/m 0 min 0 min 0 W/m 8,4 km/h (2 Bft)
26.10.2014 22:28 11,6 C 9,4 C 90 % 1024,6 hPa 0,0 l/m 0 min 0 min 0 W/m 8,4 km/h (2 Bft)
26.10.2014 22:30 11,6 C 9,4 C 90 % 1024,6 hPa 0,0 l/m 0 min 0 min 0 W/m 10,5 km/h (2 Bft)
26.10.2014 22:32 11,6 C 9,4 C 90 % 1024,6 hPa 0,0 l/m 0 min 0 min 0 W/m 10,5 km/h (2 Bft)
26.10.2014 22:34 11,6 C 9,4 C 90 % 1024,6 hPa 0,0 l/m 0 min 0 min 0 W/m 10,5 km/h (2 Bft)
26.10.2014 22:36 11,5 C 9,4 C 90 % 1024,6 hPa 0,0 l/m 0 min 0 min 0 W/m 10,5 km/h (2 Bft)
26.10.2014 22:38 11,5 C 9,4 C 90 % 1024,6 hPa 0,0 l/m 0 min 0 min 0 W/m 8,4 km/h (2 Bft)
26.10.2014 22:40 11,4 C 9,4 C 90 % 1024,6 hPa 0,0 l/m 0 min 0 min 0 W/m 12,6 km/h (3 Bft)
26.10.2014 22:42 11,4 C 9,4 C 90 % 1024,6 hPa 0,0 l/m 0 min 0 min 0 W/m 8,4 km/h (2 Bft)
26.10.2014 22:44 11,4 C 9,4 C 90 % 1024,6 hPa 0,0 l/m 0 min 0 min 0 W/m 8,4 km/h (2 Bft)
26.10.2014 22:46 11,3 C 9,4 C 90 % 1024,6 hPa 0,0 l/m 0 min 0 min 0 W/m 8,4 km/h (2 Bft)
26.10.2014 22:48 11,3 C 9,4 C 90 % 1024,6 hPa 0,0 l/m 0 min 0 min 0 W/m 8,4 km/h (2 Bft)
26.10.2014 22:50 11,3 C 9,4 C 90 % 1024,6 hPa 0,0 l/m 0 min 0 min 0 W/m 8,4 km/h (2 Bft)
26.10.2014 22:52 11,3 C 9,4 C 91 % 1024,6 hPa 0,0 l/m 0 min 0 min 0 W/m 8,4 km/h (2 Bft)
26.10.2014 22:54 11,2 C 9,4 C 91 % 1024,6 hPa 0,0 l/m 0 min 0 min 0 W/m 8,4 km/h (2 Bft)
26.10.2014 22:56 11,2 C 9,4 C 91 % 1024,6 hPa 0,0 l/m 0 min 0 min 0 W/m 6,3 km/h (2 Bft)
26.10.2014 22:58 11,2 C 9,4 C 91 % 1024,6 hPa 0,0 l/m 0 min 0 min 0 W/m 6,3 km/h (2 Bft)
26.10.2014 23:00 11,2 C 9,4 C 91 % 1024,6 hPa 0,0 l/m 0 min 0 min 0 W/m 6,3 km/h (2 Bft)
26.10.2014 23:02 11,2 C 9,4 C 91 % 1024,6 hPa 0,0 l/m 0 min 0 min 0 W/m 4,2 km/h (1 Bft)
26.10.2014 23:04 11,1 C 9,4 C 91 % 1024,7 hPa 0,0 l/m 0 min 0 min 0 W/m 6,3 km/h (2 Bft)
26.10.2014 23:06 11,1 C 9,4 C 91 % 1024,7 hPa 0,0 l/m 0 min 0 min 0 W/m 4,2 km/h (1 Bft)
26.10.2014 23:08 11,1 C 9,4 C 91 % 1024,7 hPa 0,0 l/m 0 min 0 min 0 W/m 8,4 km/h (2 Bft)
26.10.2014 23:10 11,1 C 9,4 C 91 % 1024,7 hPa 0,0 l/m 0 min 0 min 0 W/m 6,3 km/h (2 Bft)
26.10.2014 23:12 11,1 C 9,4 C 91 % 1024,7 hPa 0,0 l/m 0 min 0 min 0 W/m 6,3 km/h (2 Bft)
26.10.2014 23:14 11,1 C 9,4 C 91 % 1024,7 hPa 0,0 l/m 0 min 0 min 0 W/m 4,2 km/h (1 Bft)
26.10.2014 23:16 11,1 C 10,0 C 91 % 1024,7 hPa 0,0 l/m 0 min 0 min 0 W/m 2,1 km/h (1 Bft)
26.10.2014 23:18 11,1 C 10,0 C 91 % 1024,7 hPa 0,0 l/m 0 min 0 min 0 W/m 4,2 km/h (1 Bft)
26.10.2014 23:20 11,1 C 10,0 C 91 % 1024,7 hPa 0,0 l/m 0 min 0 min 0 W/m 6,3 km/h (2 Bft)
26.10.2014 23:22 11,1 C 10,0 C 91 % 1024,7 hPa 0,0 l/m 0 min 0 min 0 W/m 2,1 km/h (1 Bft)
26.10.2014 23:24 11,1 C 10,0 C 92 % 1024,7 hPa 0,0 l/m 0 min 0 min 0 W/m 4,2 km/h (1 Bft)
26.10.2014 23:26 11,1 C 10,0 C 92 % 1024,8 hPa 0,0 l/m 0 min 0 min 0 W/m 2,1 km/h (1 Bft)
26.10.2014 23:28 11,1 C 10,0 C 92 % 1024,8 hPa 0,0 l/m 0 min 0 min 0 W/m 4,2 km/h (1 Bft)
26.10.2014 23:30 11,1 C 10,0 C 92 % 1024,8 hPa 0,0 l/m 0 min 0 min 0 W/m 2,1 km/h (1 Bft)
26.10.2014 23:32 11,1 C 10,0 C 92 % 1024,7 hPa 0,0 l/m 0 min 0 min 0 W/m 4,2 km/h (1 Bft)
26.10.2014 23:34 11,1 C 10,0 C 92 % 1024,7 hPa 0,0 l/m 0 min 0 min 0 W/m 4,2 km/h (1 Bft)
26.10.2014 23:36 11,1 C 10,0 C 92 % 1024,7 hPa 0,0 l/m 0 min 0 min 0 W/m 4,2 km/h (1 Bft)
26.10.2014 23:38 11,1 C 10,0 C 92 % 1024,7 hPa 0,0 l/m 0 min 0 min 0 W/m 6,3 km/h (2 Bft)
26.10.2014 23:40 11,1 C 10,0 C 92 % 1024,7 hPa 0,0 l/m 0 min 0 min 0 W/m 6,3 km/h (2 Bft)
26.10.2014 23:42 11,1 C 10,0 C 92 % 1024,7 hPa 0,0 l/m 0 min 0 min 0 W/m 4,2 km/h (1 Bft)
26.10.2014 23:44 11,1 C 10,0 C 92 % 1024,6 hPa 0,0 l/m 0 min 0 min 0 W/m 6,3 km/h (2 Bft)
26.10.2014 23:46 11,1 C 10,0 C 92 % 1024,6 hPa 0,0 l/m 0 min 0 min 0 W/m 6,3 km/h (2 Bft)
26.10.2014 23:48 11,2 C 10,0 C 92 % 1024,6 hPa 0,0 l/m 0 min 0 min 0 W/m 6,3 km/h (2 Bft)
26.10.2014 23:50 11,2 C 10,0 C 92 % 1024,7 hPa 0,0 l/m 0 min 0 min 0 W/m 8,4 km/h (2 Bft)
26.10.2014 23:52 11,2 C 10,0 C 92 % 1024,6 hPa 0,0 l/m 0 min 0 min 0 W/m 6,3 km/h (2 Bft)
26.10.2014 23:54 11,2 C 10,0 C 92 % 1024,6 hPa 0,0 l/m 0 min 0 min 0 W/m 4,2 km/h (1 Bft)
26.10.2014 23:56 11,2 C 10,0 C 92 % 1024,6 hPa 0,0 l/m 0 min 0 min 0 W/m 6,3 km/h (2 Bft)
26.10.2014 23:58 11,2 C 10,0 C 93 % 1024,6 hPa 0,0 l/m 0 min 0 min 0 W/m 6,3 km/h (2 Bft)
_ Min-Zeit 00:54 00:56 13:10 00:00 - - - - 16:20
Minimum _ 8,7 C 6,7 C 68 % 1022,7 hPa - - - - 2,1 km/h (1 Bft)
_ Max-Zeit 13:50 12:38 02:26 10:08 00:00 10:58 00:00 12:28 11:44
Maximum _ 16,8 C 15,6 C 98 % 1025,2 hPa 0,0 l/m 2 min 2 min 526 W/m 27,2 km/h
SW (4 Bft)
Durchschnitt _ 12,6 C 11,0 C 88 % 1024,2 hPa #0,0 l/m #2:43 h #2:58 h 139 W/m 9,3 km/h (2 Bft)
© 2014 W. Hausmann